Warning: Javascript must be enabled to use all the features on this page!


Page Loading - Please Wait...

Click to hideNews Bulletins
  • Try our new Mobile-friendly water data site from your mobile device!
  • Full News RSS icon
  • Click to hide state-specific text

    Welcome to the NWIS-Web for the Arizona Water Science Center


    The majority of USGS Gaging Stations are funded though a cooperative program between the USGS other interested agencies.
    Follow this link for information on the Cooperative Water Program with the USGS.


    Threatened and Endangered USGS Gaging Stations in Arizona
    Colorado Basin River Forecast Center - provided by the National Weather Service, AHPS. CBRFC on Google Maps.
    Arizona Water Science Center Home Page

    USGS 09471000 SAN PEDRO RIVER AT CHARLESTON, AZ.

    PROVISIONAL DATA SUBJECT TO REVISION

    Click to hidestation-specific text
    Station operated in cooperation with Cochise County, the Bureau of Land Management, and the Arizona Department of Water Resources.

    HIGH DATA RATE (Site data are transmitted & updated hourly)
    rainfall Arrow
    This station managed by the Tucson Field Office; USGS, AZ-WSC.

    Available Parameters Available Period
    All 3 Available Parameters for this site
      
    00065 Gage height [Bubbler Stage Sensor] 2007-10-01  2014-08-28
    00060 Discharge 2007-10-01  2014-08-28
    00045 Precipitation 2014-04-30  2014-08-28

    Graph
    Graph w/ stats
    Graph w/o stats
    Graph w/ (up to 3) parms
    Table
    Tab-separated
    Days  (18)
     

      -- or --
    Begin date
     

    End date
     

    Summary of all available data for this site
    Instantaneous-data availability statement






    Date / Time




    Gage
    height,
    feet,
    [Bubbler
    Stage
    Sensor]




    Dis-
    charge,
    ft3/s,



    Precip-
    itation
    total,
    inches,
    08/10/2014 00:00 MST3.48P  224P  0.00P  
    08/10/2014 00:15 MST3.35P  189P  0.00P  
    08/10/2014 00:30 MST3.23P  160P  0.00P  
    08/10/2014 00:45 MST3.13P  136P  0.00P  
    08/10/2014 01:00 MST3.03P  115P  0.00P  
    08/10/2014 01:15 MST2.93P  96.2P  0.00P  
    08/10/2014 01:30 MST2.85P  82.6P  0.00P  
    08/10/2014 01:45 MST2.79P  73.4P  0.00P  
    08/10/2014 02:00 MST2.73P  64.8P  0.00P  
    08/10/2014 02:15 MST2.68P  58.2P  0.00P  
    08/10/2014 02:30 MST2.64P  53.2P  0.00P  
    08/10/2014 02:45 MST2.59P  47.4P  0.00P  
    08/10/2014 03:00 MST2.56P  44.1P  0.00P  
    08/10/2014 03:15 MST2.53P  41.0P  0.00P  
    08/10/2014 03:30 MST2.50P  38.0P  0.00P  
    08/10/2014 03:45 MST2.49P  37.1P  0.00P  
    08/10/2014 04:00 MST2.47P  35.2P  0.00P  
    08/10/2014 04:15 MST2.45P  33.4P  0.00P  
    08/10/2014 04:30 MST2.44P  32.5P  0.00P  
    08/10/2014 04:45 MST2.43P  31.6P  0.00P  
    08/10/2014 05:00 MST2.42P  30.8P  0.00P  
    08/10/2014 05:15 MST2.41P  29.9P  0.00P  
    08/10/2014 05:30 MST2.40P  29.1P  0.00P  
    08/10/2014 05:45 MST2.39P  28.3P  0.00P  
    08/10/2014 06:00 MST2.38P  27.5P  0.00P  
    08/10/2014 06:15 MST2.37P  26.8P  0.00P  
    08/10/2014 06:30 MST2.37P  26.8P  0.00P  
    08/10/2014 06:45 MST2.36P  26.0P  0.00P  
    08/10/2014 07:00 MST2.35P  25.2P  0.00P  
    08/10/2014 07:15 MST2.35P  25.2P  0.00P  
    08/10/2014 07:30 MST2.34P  24.5P  0.00P  
    08/10/2014 07:45 MST2.34P  24.5P  0.00P  
    08/10/2014 08:00 MST2.33P  23.8P  0.00P  
    08/10/2014 08:15 MST2.33P  23.8P  0.00P  
    08/10/2014 08:30 MST2.32P  23.1P  0.00P  
    08/10/2014 08:45 MST2.91P  92.7P  0.00P  
    08/10/2014 09:00 MST3.44P  212P  0.00P  
    08/10/2014 09:15 MST3.57P  248P  0.00P  
    08/10/2014 09:30 MST3.67P  277P  0.00P  
    08/10/2014 09:45 MST3.70P  284P  0.00P  
    08/10/2014 10:00 MST3.66P  274P  0.00P  
    08/10/2014 10:15 MST3.69P  281P  0.00P  
    08/10/2014 10:30 MST3.70P  284P  0.00P  
    08/10/2014 10:45 MST3.71P  287P  0.00P  
    08/10/2014 11:00 MST3.71P  287P  0.00P  
    08/10/2014 11:15 MST3.71P  287P  0.00P  
    08/10/2014 11:30 MST3.69P  281P  0.00P  
    08/10/2014 11:45 MST3.64P  267P  0.00P  
    08/10/2014 12:00 MST3.65P  271P  0.00P  
    08/10/2014 12:15 MST3.65P  271P  0.00P  
    08/10/2014 12:30 MST3.57P  248P  0.00P  
    08/10/2014 12:45 MST3.57P  248P  0.00P  
    08/10/2014 13:00 MST3.54P  239P  0.00P  
    08/10/2014 13:15 MST3.51P  230P  0.00P  
    08/10/2014 13:30 MST3.48P  224P  0.00P  
    08/10/2014 13:45 MST3.46P  218P  0.00P  
    08/10/2014 14:00 MST3.44P  212P  0.00P  
    08/10/2014 14:15 MST3.42P  209P  0.00P  
    08/10/2014 14:30 MST3.41P  206P  0.00P  
    08/10/2014 14:45 MST3.38P  198P  0.00P  
    08/10/2014 15:00 MST3.33P  186P  0.00P  
    08/10/2014 15:15 MST3.32P  184P  0.00P  
    08/10/2014 15:30 MST3.30P  178P  0.00P  
    08/10/2014 15:45 MST3.26P  168P  0.00P  
    08/10/2014 16:00 MST3.26P  168P  0.00P  
    08/10/2014 16:15 MST3.24P  163P  0.00P  
    08/10/2014 16:30 MST3.21P  155P  0.00P  
    08/10/2014 16:45 MST3.20P  153P  0.00P  
    08/10/2014 17:00 MST3.18P  148P  0.00P  
    08/10/2014 17:15 MST3.17P  146P  0.00P  
    08/10/2014 17:30 MST3.14P  139P  0.00P  
    08/10/2014 17:45 MST3.12P  134P  0.00P  
    08/10/2014 18:00 MST3.10P  130P  0.00P  
    08/10/2014 18:15 MST3.08P  125P  0.00P  
    08/10/2014 18:30 MST3.06P  121P  0.00P  
    08/10/2014 18:45 MST3.05P  119P  0.00P  
    08/10/2014 19:00 MST3.03P  115P  0.00P  
    08/10/2014 19:15 MST3.01P  111P  0.00P  
    08/10/2014 19:30 MST3.00P  109P  0.00P  
    08/10/2014 19:45 MST2.99P  107P  0.00P  
    08/10/2014 20:00 MST2.97P  104P  0.00P  
    08/10/2014 20:15 MST2.96P  102P  0.00P  
    08/10/2014 20:30 MST2.94P  98.0P  0.00P  
    08/10/2014 20:45 MST2.94P  98.0P  0.00P  
    08/10/2014 21:00 MST2.91P  92.7P  0.00P  
    08/10/2014 21:15 MST2.88P  87.6P  0.00P  
    08/10/2014 21:30 MST2.88P  87.6P  0.00P  
    08/10/2014 21:45 MST2.86P  84.3P  0.00P  
    08/10/2014 21:59 MST2.86P  84.3P  0.00P  
    08/10/2014 22:00 MST2.86P  84.3P  0.00P  
    08/10/2014 22:14 MST2.84P  81.0P  0.01P  
    08/10/2014 22:15 MST2.84P  81.0P  0.00P  
    08/10/2014 22:30 MST2.83P  79.5P  0.01P  
    08/10/2014 22:45 MST2.82P  77.9P  0.01P  
    08/10/2014 23:00 MST2.81P  76.4P  0.00P  
    08/10/2014 23:15 MST2.79P  73.4P  0.00P  
    08/10/2014 23:30 MST2.78P  71.9P  0.00P  
    08/10/2014 23:45 MST2.77P  70.4P  0.00P  
    08/11/2014 00:00 MST2.77P  70.4P  0.00P  
    08/11/2014 00:15 MST2.76P  69.0P  0.00P  
    08/11/2014 00:30 MST2.74P  66.2P  0.00P  
    08/11/2014 00:45 MST2.73P  64.8P  0.00P  
    08/11/2014 01:00 MST2.73P  64.8P  0.00P  
    08/11/2014 01:15 MST2.73P  64.8P  0.00P  
    08/11/2014 01:30 MST2.80P  74.8P  0.00P  
    08/11/2014 01:45 MST3.03P  115P  0.00P  
    08/11/2014 02:00 MST3.16P  143P  0.00P  
    08/11/2014 02:15 MST3.20P  153P  0.00P  
    08/11/2014 02:30 MST3.20P  153P  0.00P  
    08/11/2014 02:45 MST3.21P  155P  0.00P  
    08/11/2014 03:00 MST3.17P  146P  0.00P  
    08/11/2014 03:15 MST3.13P  136P  0.00P  
    08/11/2014 03:30 MST3.05P  119P  0.00P  
    08/11/2014 03:45 MST2.98P  105P  0.00P  
    08/11/2014 04:00 MST2.92P  94.4P  0.00P  
    08/11/2014 04:15 MST2.86P  84.3P  0.00P  
    08/11/2014 04:30 MST2.82P  77.9P  0.00P  
    08/11/2014 04:45 MST2.79P  73.4P  0.00P  
    08/11/2014 05:00 MST2.76P  69.0P  0.00P  
    08/11/2014 05:15 MST2.73P  64.8P  0.00P  
    08/11/2014 05:30 MST2.71P  62.1P  0.00P  
    08/11/2014 05:45 MST2.67P  56.9P  0.00P  
    08/11/2014 06:00 MST2.66P  55.6P  0.00P  
    08/11/2014 06:15 MST2.63P  52.0P  0.00P  
    08/11/2014 06:30 MST2.62P  50.8P  0.00P  
    08/11/2014 06:45 MST2.60P  48.5P  0.00P  
    08/11/2014 07:00 MST2.59P  47.4P  0.00P  
    08/11/2014 07:15 MST2.57P  45.2P  0.00P  
    08/11/2014 07:30 MST2.56P  44.1P  0.00P  
    08/11/2014 07:45 MST2.55P  43.1P  0.00P  
    08/11/2014 08:00 MST2.54P  42.0P  0.00P  
    08/11/2014 08:15 MST2.54P  42.0P  0.00P  
    08/11/2014 08:30 MST2.53P  41.0P  0.00P  
    08/11/2014 08:45 MST2.53P  41.0P  0.00P  
    08/11/2014 09:00 MST2.51P  39.0P  0.00P  
    08/11/2014 09:15 MST2.51P  39.0P  0.00P  
    08/11/2014 09:30 MST2.51P  39.0P  0.00P  
    08/11/2014 09:45 MST2.50P  38.0P  0.00P  
    08/11/2014 10:00 MST2.50P  38.0P  0.00P  
    08/11/2014 10:15 MST2.49P  37.1P  0.00P  
    08/11/2014 10:30 MST2.48P  36.1P  0.00P  
    08/11/2014 10:45 MST2.48P  36.1P  0.00P  
    08/11/2014 11:00 MST2.48P  36.1P  0.00P  
    08/11/2014 11:15 MST2.47P  35.2P  0.00P  
    08/11/2014 11:30 MST2.47P  35.2P  0.00P  
    08/11/2014 11:45 MST2.46P  34.3P  0.00P  
    08/11/2014 12:00 MST2.46P  34.3P  0.00P  
    08/11/2014 12:15 MST2.46P  34.3P  0.00P  
    08/11/2014 12:30 MST2.45P  33.4P  0.00P  
    08/11/2014 12:45 MST2.44P  32.5P  0.00P  
    08/11/2014 13:00 MST2.44P  32.5P  0.00P  
    08/11/2014 13:15 MST2.44P  32.5P  0.00P  
    08/11/2014 13:30 MST2.44P  32.5P  0.00P  
    08/11/2014 13:45 MST2.43P  31.6P  0.00P  
    08/11/2014 14:00 MST2.43P  31.6P  0.00P  
    08/11/2014 14:15 MST2.42P  30.8P  0.00P  
    08/11/2014 14:30 MST2.42P  30.8P  0.00P  
    08/11/2014 14:45 MST2.41P  29.9P  0.00P  
    08/11/2014 15:00 MST2.41P  29.9P  0.00P  
    08/11/2014 15:15 MST2.40P  29.1P  0.00P  
    08/11/2014 15:30 MST2.40P  29.1P  0.00P  
    08/11/2014 15:45 MST2.40P  29.1P  0.00P  
    08/11/2014 16:00 MST2.39P  28.3P  0.00P  
    08/11/2014 16:15 MST2.39P  28.3P  0.00P  
    08/11/2014 16:30 MST2.39P  28.3P  0.00P  
    08/11/2014 16:45 MST2.38P  27.5P  0.00P  
    08/11/2014 17:00 MST2.38P  27.5P  0.00P  
    08/11/2014 17:15 MST2.38P  27.5P  0.00P  
    08/11/2014 17:30 MST2.37P  26.8P  0.00P  
    08/11/2014 17:45 MST2.37P  26.8P  0.00P  
    08/11/2014 18:00 MST2.37P  26.8P  0.00P  
    08/11/2014 18:15 MST2.36P  26.0P  0.00P  
    08/11/2014 18:30 MST2.36P  26.0P  0.00P  
    08/11/2014 18:45 MST2.36P  26.0P  0.00P  
    08/11/2014 19:00 MST2.36P  26.0P  0.00P  
    08/11/2014 19:15 MST2.35P  25.2P  0.00P  
    08/11/2014 19:30 MST2.35P  25.2P  0.00P  
    08/11/2014 19:45 MST2.35P  25.2P  0.00P  
    08/11/2014 20:00 MST2.35P  25.2P  0.00P  
    08/11/2014 20:15 MST2.34P  24.5P  0.00P  
    08/11/2014 20:30 MST2.34P  24.5P  0.00P  
    08/11/2014 20:45 MST2.34P  24.5P  0.00P  
    08/11/2014 21:00 MST2.34P  24.5P  0.00P  
    08/11/2014 21:15 MST2.34P  24.5P  0.00P  
    08/11/2014 21:30 MST2.34P  24.5P  0.00P  
    08/11/2014 21:45 MST2.33P  23.8P  0.00P  
    08/11/2014 21:59 MST2.33P  23.8P  0.00P  
    08/11/2014 22:00 MST2.33P  23.8P  0.00P  
    08/11/2014 22:14 MST2.33P  23.8P  0.00P  
    08/11/2014 22:15 MST2.33P  23.8P  0.00P  
    08/11/2014 22:30 MST2.33P  23.8P  0.00P  
    08/11/2014 22:45 MST2.33P  23.8P  0.00P  
    08/11/2014 23:00 MST2.32P  23.1P  0.00P  
    08/11/2014 23:15 MST2.32P  23.1P  0.00P  
    08/11/2014 23:30 MST2.32P  23.1P  0.00P  
    08/11/2014 23:45 MST2.32P  23.1P  0.00P  
    08/12/2014 00:00 MST2.32P  23.1P  0.00P  
    08/12/2014 00:15 MST2.32P  23.1P  0.00P  
    08/12/2014 00:30 MST2.32P  23.1P  0.00P  
    08/12/2014 00:45 MST2.32P  23.1P  0.00P  
    08/12/2014 01:00 MST2.31P  22.4P  0.00P  
    08/12/2014 01:15 MST2.31P  22.4P  0.00P  
    08/12/2014 01:30 MST2.31P  22.4P  0.00P  
    08/12/2014 01:45 MST2.31P  22.4P  0.00P  
    08/12/2014 02:00 MST2.31P  22.4P  0.00P  
    08/12/2014 02:15 MST2.31P  22.4P  0.00P  
    08/12/2014 02:30 MST2.30P  21.7P  0.00P  
    08/12/2014 02:45 MST2.30P  21.7P  0.00P  
    08/12/2014 03:00 MST2.30P  21.7P  0.00P  
    08/12/2014 03:15 MST2.30P  21.7P  0.00P  
    08/12/2014 03:30 MST2.30P  21.7P  0.00P  
    08/12/2014 03:45 MST2.30P  21.7P  0.00P  
    08/12/2014 04:00 MST2.30P  21.7P  0.00P  
    08/12/2014 04:15 MST2.29P  21.1P  0.00P  
    08/12/2014 04:30 MST2.29P  21.1P  0.00P  
    08/12/2014 04:45 MST2.29P  21.1P  0.00P  
    08/12/2014 05:00 MST2.29P  21.1P  0.00P  
    08/12/2014 05:15 MST2.29P  21.1P  0.00P  
    08/12/2014 05:30 MST2.29P  21.1P  0.00P  
    08/12/2014 05:45 MST2.29P  21.1P  0.00P  
    08/12/2014 06:00 MST2.29P  21.1P  0.00P  
    08/12/2014 06:15 MST2.29P  21.1P  0.00P  
    08/12/2014 06:30 MST2.28P  20.4P  0.00P  
    08/12/2014 06:45 MST2.28P  20.4P  0.00P  
    08/12/2014 07:00 MST2.28P  20.4P  0.00P  
    08/12/2014 07:15 MST2.28P  20.4P  0.00P  
    08/12/2014 07:30 MST2.28P  20.4P  0.00P  
    08/12/2014 07:45 MST2.28P  20.4P  0.00P  
    08/12/2014 08:00 MST2.28P  20.4P  0.00P  
    08/12/2014 08:15 MST2.28P  20.4P  0.00P  
    08/12/2014 08:30 MST2.27P  19.8P  0.00P  
    08/12/2014 08:45 MST2.27P  19.8P  0.00P  
    08/12/2014 09:00 MST2.27P  19.8P  0.00P  
    08/12/2014 09:15 MST2.27P  19.8P  0.00P  
    08/12/2014 09:30 MST2.27P  19.8P  0.00P  
    08/12/2014 09:45 MST2.27P  19.8P  0.00P  
    08/12/2014 10:00 MST2.26P  19.2P  0.00P  
    08/12/2014 10:15 MST2.26P  19.2P  0.00P  
    08/12/2014 10:30 MST2.26P  19.2P  0.00P  
    08/12/2014 10:45 MST2.26P  19.2P  0.00P  
    08/12/2014 11:00 MST2.26P  19.2P  0.00P  
    08/12/2014 11:15 MST2.26P  19.2P  0.00P  
    08/12/2014 11:30 MST2.26P  19.2P  0.00P  
    08/12/2014 11:45 MST2.26P  19.2P  0.00P  
    08/12/2014 12:00 MST2.25P  18.6P  0.00P  
    08/12/2014 12:15 MST2.25P  18.6P  0.00P  
    08/12/2014 12:30 MST2.25P  18.6P  0.00P  
    08/12/2014 12:45 MST2.25P  18.6P  0.00P  
    08/12/2014 13:00 MST2.25P  18.6P  0.00P  
    08/12/2014 13:15 MST2.25P  18.6P  0.00P  
    08/12/2014 13:30 MST2.24P  17.9P  0.00P  
    08/12/2014 13:45 MST2.24P  17.9P  0.00P  
    08/12/2014 14:00 MST2.25P  18.6P  0.00P  
    08/12/2014 14:15 MST2.24P  17.9P  0.00P  
    08/12/2014 14:30 MST2.24P  17.9P  0.00P  
    08/12/2014 14:45 MST2.24P  17.9P  0.00P  
    08/12/2014 15:00 MST2.24P  17.9P  0.00P  
    08/12/2014 15:15 MST2.24P  17.9P  0.00P  
    08/12/2014 15:30 MST2.24P  17.9P  0.00P  
    08/12/2014 15:45 MST2.24P  17.9P  0.00P  
    08/12/2014 16:00 MST2.24P  17.9P  0.00P  
    08/12/2014 16:15 MST2.23P  17.3P  0.00P  
    08/12/2014 16:30 MST2.24P  17.9P  0.00P  
    08/12/2014 16:45 MST2.23P  17.3P  0.00P  
    08/12/2014 17:00 MST2.23P  17.3P  0.00P  
    08/12/2014 17:15 MST2.23P  17.3P  0.00P  
    08/12/2014 17:30 MST2.23P  17.3P  0.00P  
    08/12/2014 17:45 MST2.23P  17.3P  0.00P  
    08/12/2014 18:00 MST2.23P  17.3P  0.01P  
    08/12/2014 18:15 MST2.23P  17.3P  0.00P  
    08/12/2014 18:30 MST2.23P  17.3P  0.00P  
    08/12/2014 18:45 MST2.23P  17.3P  0.00P  
    08/12/2014 19:00 MST2.23P  17.3P  0.00P  
    08/12/2014 19:15 MST2.23P  17.3P  0.00P  
    08/12/2014 19:30 MST2.23P  17.3P  0.00P  
    08/12/2014 19:45 MST2.22P  16.6P  0.00P  
    08/12/2014 20:00 MST2.22P  16.6P  0.00P  
    08/12/2014 20:15 MST2.22P  16.6P  0.00P  
    08/12/2014 20:30 MST2.22P  16.6P  0.00P  
    08/12/2014 20:45 MST2.23P  17.3P  0.12P  
    08/12/2014 21:00 MST2.24P  17.9P  0.12P  
    08/12/2014 21:15 MST2.23P  17.3P  0.02P  
    08/12/2014 21:30 MST2.23P  17.3P  0.00P  
    08/12/2014 21:45 MST2.23P  17.3P  0.01P  
    08/12/2014 21:59 MST2.23P  17.3P  0.00P  
    08/12/2014 22:00 MST2.23P  17.3P  0.00P  
    08/12/2014 22:14 MST2.24P  17.9P  0.00P  
    08/12/2014 22:15 MST2.24P  17.9P  0.00P  
    08/12/2014 22:30 MST2.24P  17.9P  0.00P  
    08/12/2014 22:45 MST2.23P  17.3P  0.00P  
    08/12/2014 23:00 MST2.25P  18.6P  0.00P  
    08/12/2014 23:15 MST2.67P  56.9P  0.00P  
    08/12/2014 23:30 MST3.01P  111P  0.00P  
    08/12/2014 23:45 MST3.25P  165P  0.00P  
    08/13/2014 00:00 MST3.21P  155P  0.00P  
    08/13/2014 00:15 MST3.13P  136P  0.00P  
    08/13/2014 00:30 MST3.03P  115P  0.00P  
    08/13/2014 00:45 MST2.94P  98.0P  0.00P  
    08/13/2014 01:00 MST2.83P  79.5P  0.00P  
    08/13/2014 01:15 MST2.79P  73.4P  0.00P  
    08/13/2014 01:30 MST2.81P  76.4P  0.00P  
    08/13/2014 01:45 MST2.82P  77.9P  0.00P  
    08/13/2014 02:00 MST2.82P  77.9P  0.00P  
    08/13/2014 02:15 MST2.78P  71.9P  0.00P  
    08/13/2014 02:30 MST2.80P  74.8P  0.00P  
    08/13/2014 02:45 MST2.73P  64.8P  0.00P  
    08/13/2014 03:00 MST2.69P  59.4P  0.00P  
    08/13/2014 03:15 MST2.62P  50.8P  0.00P  
    08/13/2014 03:30 MST2.61P  49.7P  0.00P  
    08/13/2014 03:45 MST2.57P  45.2P  0.00P  
    08/13/2014 04:00 MST2.56P  44.1P  0.00P  
    08/13/2014 04:15 MST2.57P  45.2P  0.00P  
    08/13/2014 04:30 MST2.58P  46.3P  0.00P  
    08/13/2014 04:45 MST2.59P  47.4P  0.00P  
    08/13/2014 05:00 MST2.59P  47.4P  0.00P  
    08/13/2014 05:15 MST2.59P  47.4P  0.00P  
    08/13/2014 05:30 MST3.61P  258P  0.00P  
    08/13/2014 05:44 MST4.06P  407P  0.00P  
    08/13/2014 05:45 MST4.06P  407P  0.00P  
    08/13/2014 05:59 MST4.40P  549P  0.00P  
    08/13/2014 06:00 MST4.40P  549P  0.00P  
    08/13/2014 06:14 MST4.51P  603P  0.00P  
    08/13/2014 06:15 MST4.51P  603P  0.00P  
    08/13/2014 06:29 MST4.60P  648P  0.00P  
    08/13/2014 06:30 MST4.60P  648P  0.00P  
    08/13/2014 06:44 MST4.57P  631P  0.00P  
    08/13/2014 06:45 MST4.57P  631P  0.00P  
    08/13/2014 06:59 MST4.66P  677P  0.00P  
    08/13/2014 07:00 MST4.66P  677P  0.00P  
    08/13/2014 07:14 MST4.79P  745P  0.00P  
    08/13/2014 07:15 MST4.79P  745P  0.00P  
    08/13/2014 07:29 MST4.82P  764P  0.00P  
    08/13/2014 07:30 MST4.82P  764P  0.00P  
    08/13/2014 07:44 MST4.92P  823P  0.00P  
    08/13/2014 07:45 MST4.92P  823P  0.00P  
    08/13/2014 07:59 MST4.92P  823P  0.00P  
    08/13/2014 08:00 MST4.92P  823P  0.00P  
    08/13/2014 08:14 MST4.93P  830P  0.00P  
    08/13/2014 08:15 MST4.93P  830P  0.00P  
    08/13/2014 08:29 MST4.94P  830P  0.00P  
    08/13/2014 08:30 MST4.94P  830P  0.00P  
    08/13/2014 08:44 MST4.99P  864P  0.00P  
    08/13/2014 08:45 MST4.99P  864P  0.00P  
    08/13/2014 08:59 MST4.94P  830P  0.00P  
    08/13/2014 09:00 MST4.94P  830P  0.00P  
    08/13/2014 09:14 MST4.95P  837P  0.00P  
    08/13/2014 09:15 MST4.95P  837P  0.00P  
    08/13/2014 09:29 MST5.05P  899P  0.00P  
    08/13/2014 09:30 MST5.05P  899P  0.00P  
    08/13/2014 09:44 MST4.97P  850P  0.00P  
    08/13/2014 09:45 MST4.97P  850P  0.00P  
    08/13/2014 09:59 MST5.00P  871P  0.00P  
    08/13/2014 10:00 MST5.00P  871P  0.00P  
    08/13/2014 10:14 MST4.97P  850P  0.00P  
    08/13/2014 10:15 MST4.97P  850P  0.00P  
    08/13/2014 10:29 MST4.94P  830P  0.00P  
    08/13/2014 10:30 MST4.94P  830P  0.00P  
    08/13/2014 10:44 MST4.97P  850P  0.00P  
    08/13/2014 10:45 MST4.97P  850P  0.00P  
    08/13/2014 10:59 MST4.97P  850P  0.00P  
    08/13/2014 11:00 MST4.97P  850P  0.00P  
    08/13/2014 11:14 MST4.87P  790P  0.00P  
    08/13/2014 11:15 MST4.87P  790P  0.00P  
    08/13/2014 11:29 MST4.80P  751P  0.00P  
    08/13/2014 11:30 MST4.80P  751P  0.00P  
    08/13/2014 11:44 MST4.94P  830P  0.00P  
    08/13/2014 11:45 MST4.94P  830P  0.00P  
    08/13/2014 11:59 MST4.89P  803P  0.00P  
    08/13/2014 12:00 MST4.89P  803P  0.00P  
    08/13/2014 12:14 MST4.86P  783P  0.00P  
    08/13/2014 12:15 MST4.86P  783P  0.00P  
    08/13/2014 12:29 MST4.79P  745P  0.00P  
    08/13/2014 12:30 MST4.79P  745P  0.00P  
    08/13/2014 12:44 MST4.74P  720P  0.00P  
    08/13/2014 12:45 MST4.74P  720P  0.00P  
    08/13/2014 12:59 MST4.68P  689P  0.00P  
    08/13/2014 13:00 MST4.68P  689P  0.00P  
    08/13/2014 13:14 MST4.67P  683P  0.00P  
    08/13/2014 13:15 MST4.67P  683P  0.00P  
    08/13/2014 13:29 MST4.61P  648P  0.00P  
    08/13/2014 13:30 MST4.61P  648P  0.00P  
    08/13/2014 13:44 MST4.68P  689P  0.00P  
    08/13/2014 13:45 MST4.68P  689P  0.00P  
    08/13/2014 13:59 MST4.57P  631P  0.00P  
    08/13/2014 14:00 MST4.57P  631P  0.00P  
    08/13/2014 14:14 MST4.54P  614P  0.00P  
    08/13/2014 14:15 MST4.54P  614P  0.00P  
    08/13/2014 14:29 MST4.49P  592P  0.00P  
    08/13/2014 14:30 MST4.49P  592P  0.00P  
    08/13/2014 14:44 MST4.51P  603P  0.00P  
    08/13/2014 14:45 MST4.51P  603P  0.00P  
    08/13/2014 14:59 MST4.39P  544P  0.00P  
    08/13/2014 15:00 MST4.39P  544P  0.00P  
    08/13/2014 15:14 MST4.37P  534P  0.00P  
    08/13/2014 15:15 MST4.37P  534P  0.00P  
    08/13/2014 15:29 MST4.37P  534P  0.00P  
    08/13/2014 15:30 MST4.37P  534P  0.00P  
    08/13/2014 15:44 MST4.41P  554P  0.00P  
    08/13/2014 15:45 MST4.41P  554P  0.00P  
    08/13/2014 15:59 MST4.41P  554P  0.00P  
    08/13/2014 16:00 MST4.41P  554P  0.00P  
    08/13/2014 16:14 MST4.31P  508P  0.00P  
    08/13/2014 16:15 MST4.31P  508P  0.00P  
    08/13/2014 16:29 MST4.35P  523P  0.00P  
    08/13/2014 16:30 MST4.35P  523P  0.00P  
    08/13/2014 16:44 MST4.35P  523P  0.00P  
    08/13/2014 16:45 MST4.35P  523P  0.00P  
    08/13/2014 16:59 MST4.32P  513P  0.00P  
    08/13/2014 17:00 MST4.32P  513P  0.00P  
    08/13/2014 17:14 MST4.31P  508P  0.00P  
    08/13/2014 17:15 MST4.31P  508P  0.00P  
    08/13/2014 17:29 MST4.22P  470P  0.00P  
    08/13/2014 17:30 MST4.22P  470P  0.00P  
    08/13/2014 17:45 MST4.29P  499P  0.59P  
    08/13/2014 18:00 MST4.28P  494P  0.57P  
    08/13/2014 18:15 MST4.49P  592P  0.08P  
    08/13/2014 18:30 MST4.46P  575P  0.11P  
    08/13/2014 18:45 MST4.47P  581P  0.00P  
    08/13/2014 19:00 MST5.46P  1,180P  0.00P  
    08/13/2014 19:15 MST5.98P  1,660P  0.01P  
    08/13/2014 19:30 MST6.61P  2,440P  0.00P  
    08/13/2014 19:45 MST7.05P  3,100P  0.01P  
    08/13/2014 20:00 MST7.50P  3,870P  0.02P  
    08/13/2014 20:15 MST7.11P  3,190P  0.00P  
    08/13/2014 20:30 MST6.69P  2,560P  0.00P  
    08/13/2014 20:45 MST6.22P  1,940P  0.00P  
    08/13/2014 21:00 MST5.87P  1,540P  0.00P  
    08/13/2014 21:15 MST5.51P  1,220P  0.00P  
    08/13/2014 21:30 MST5.34P  1,100P  0.00P  
    08/13/2014 21:45 MST5.26P  1,040P  0.00P  
    08/13/2014 22:00 MST5.24P  1,030P  0.00P  
    08/13/2014 22:15 MST5.00P  871P  0.00P  
    08/13/2014 22:30 MST4.94P  830P  0.00P  
    08/13/2014 22:45 MST4.73P  713P  0.00P  
    08/13/2014 23:00 MST4.50P  597P  0.00P  
    08/13/2014 23:15 MST4.27P  489P  0.01P  
    08/13/2014 23:30 MST4.12P  429P  0.00P  
    08/13/2014 23:45 MST3.94P  361P  0.00P  
    08/14/2014 00:00 MST3.80P  316P  0.00P  
    08/14/2014 00:15 MST3.74P  298P  0.00P  
    08/14/2014 00:30 MST3.68P  277P  0.00P  
    08/14/2014 00:45 MST3.60P  254P  0.00P  
    08/14/2014 01:00 MST3.56P  245P  0.00P  
    08/14/2014 01:15 MST3.50P  230P  0.00P  
    08/14/2014 01:30 MST3.47P  221P  0.00P  
    08/14/2014 01:45 MST3.46P  218P  0.00P  
    08/14/2014 02:00 MST3.41P  206P  0.00P  
    08/14/2014 02:15 MST3.40P  203P  0.00P  
    08/14/2014 02:30 MST3.35P  189P  0.00P  
    08/14/2014 02:45 MST3.32P  184P  0.00P  
    08/14/2014 03:00 MST3.32P  184P  0.00P  
    08/14/2014 03:15 MST3.28P  173P  0.00P  
    08/14/2014 03:30 MST3.26P  168P  0.00P  
    08/14/2014 03:45 MST3.25P  165P  0.00P  
    08/14/2014 04:00 MST3.21P  155P  0.00P  
    08/14/2014 04:15 MST3.21P  155P  0.00P  
    08/14/2014 04:30 MST3.20P  153P  0.00P  
    08/14/2014 04:45 MST3.19P  150P  0.00P  
    08/14/2014 05:00 MST3.16P  143P  0.00P  
    08/14/2014 05:15 MST3.14P  139P  0.00P  
    08/14/2014 05:30 MST3.15P  141P  0.00P  
    08/14/2014 05:45 MST3.12P  134P  0.00P  
    08/14/2014 06:00 MST3.11P  132P  0.00P  
    08/14/2014 06:15 MST3.09P  128P  0.00P  
    08/14/2014 06:30 MST3.06P  121P  0.00P  
    08/14/2014 06:45 MST3.08P  125P  0.00P  
    08/14/2014 07:00 MST3.06P  121P  0.00P  
    08/14/2014 07:15 MST3.06P  121P  0.00P  
    08/14/2014 07:30 MST3.03P  115P  0.00P  
    08/14/2014 07:45 MST3.01P  111P  0.00P  
    08/14/2014 08:00 MST3.01P  111P  0.00P  
    08/14/2014 08:15 MST3.00P  109P  0.00P  
    08/14/2014 08:30 MST2.99P  107P  0.00P  
    08/14/2014 08:45 MST2.98P  105P  0.00P  
    08/14/2014 09:00 MST2.96P  102P  0.00P  
    08/14/2014 09:15 MST2.95P  99.8P  0.00P  
    08/14/2014 09:30 MST2.94P  98.0P  0.00P  
    08/14/2014 09:45 MST2.93P  96.2P  0.00P  
    08/14/2014 10:00 MST2.93P  96.2P  0.00P  
    08/14/2014 10:15 MST2.91P  92.7P  0.00P  
    08/14/2014 10:30 MST2.91P  92.7P  0.00P  
    08/14/2014 10:45 MST2.88P  87.6P  0.00P  
    08/14/2014 11:00 MST2.89P  89.3P  0.00P  
    08/14/2014 11:15 MST2.88P  87.6P  0.00P  
    08/14/2014 11:30 MST2.87P  85.9P  0.00P  
    08/14/2014 11:45 MST2.86P  84.3P  0.00P  
    08/14/2014 12:00 MST2.85P  82.6P  0.00P  
    08/14/2014 12:15 MST2.85P  82.6P  0.00P  
    08/14/2014 12:30 MST2.83P  79.5P  0.00P  
    08/14/2014 12:45 MST2.83P  79.5P  0.00P  
    08/14/2014 13:00 MST2.80P  74.8P  0.00P  
    08/14/2014 13:15 MST2.81P  76.4P  0.00P  
    08/14/2014 13:30 MST2.79P  73.4P  0.00P  
    08/14/2014 13:45 MST2.79P  73.4P  0.00P  
    08/14/2014 14:00 MST2.78P  71.9P  0.00P  
    08/14/2014 14:15 MST2.77P  70.4P  0.00P  
    08/14/2014 14:30 MST2.77P  70.4P  0.00P  
    08/14/2014 14:45 MST2.76P  69.0P  0.00P  
    08/14/2014 15:00 MST2.75P  67.6P  0.00P  
    08/14/2014 15:15 MST2.75P  67.6P  0.00P  
    08/14/2014 15:30 MST2.74P  66.2P  0.00P  
    08/14/2014 15:45 MST2.73P  64.8P  0.00P  
    08/14/2014 16:00 MST2.73P  64.8P  0.00P  
    08/14/2014 16:15 MST2.72P  63.4P  0.00P  
    08/14/2014 16:30 MST2.71P  62.1P  0.00P  
    08/14/2014 16:45 MST2.71P  62.1P  0.00P  
    08/14/2014 17:00 MST2.70P  60.7P  0.00P  
    08/14/2014 17:14 MST2.69P  59.4P  0.00P  
    08/14/2014 17:15 MST2.69P  59.4P  0.00P  
    08/14/2014 17:29 MST2.69P  59.4P  0.00P  
    08/14/2014 17:30 MST2.69P  59.4P  0.00P  
    08/14/2014 17:45 MST2.69P  59.4P  0.00P  
    08/14/2014 18:00 MST2.68P  58.2P  0.00P  
    08/14/2014 18:15 MST2.67P  56.9P  0.00P  
    08/14/2014 18:30 MST2.67P  56.9P  0.00P  
    08/14/2014 18:45 MST2.66P  55.6P  0.00P  
    08/14/2014 19:00 MST2.66P  55.6P  0.00P  
    08/14/2014 19:15 MST2.65P  54.4P  0.00P  
    08/14/2014 19:30 MST2.65P  54.4P  0.00P  
    08/14/2014 19:45 MST2.64P  53.2P  0.00P  
    08/14/2014 20:00 MST2.63P  52.0P  0.00P  
    08/14/2014 20:15 MST2.62P  50.8P  0.00P  
    08/14/2014 20:30 MST2.62P  50.8P  0.00P  
    08/14/2014 20:45 MST2.61P  49.7P  0.00P  
    08/14/2014 21:00 MST2.61P  49.7P  0.00P  
    08/14/2014 21:15 MST2.60P  48.5P  0.00P  
    08/14/2014 21:30 MST2.60P  48.5P  0.00P  
    08/14/2014 21:45 MST2.60P  48.5P  0.00P  
    08/14/2014 22:00 MST2.59P  47.4P  0.00P  
    08/14/2014 22:15 MST2.59P  47.4P  0.00P  
    08/14/2014 22:30 MST2.59P  47.4P  0.00P  
    08/14/2014 22:45 MST2.58P  46.3P  0.00P  
    08/14/2014 23:00 MST2.58P  46.3P  0.00P  
    08/14/2014 23:15 MST2.58P  46.3P  0.00P  
    08/14/2014 23:30 MST2.57P  45.2P  0.00P  
    08/14/2014 23:45 MST2.57P  45.2P  0.00P  
    08/15/2014 00:00 MST2.56P  44.1P  0.00P  
    08/15/2014 00:15 MST2.56P  44.1P  0.00P  
    08/15/2014 00:30 MST2.56P  44.1P  0.00P  
    08/15/2014 00:45 MST2.55P  43.1P  0.00P  
    08/15/2014 01:00 MST2.54P  42.0P  0.00P  
    08/15/2014 01:15 MST2.54P  42.0P  0.00P  
    08/15/2014 01:30 MST2.54P  42.0P  0.00P  
    08/15/2014 01:45 MST2.53P  41.0P  0.00P  
    08/15/2014 02:00 MST2.53P  41.0P  0.00P  
    08/15/2014 02:15 MST2.53P  41.0P  0.00P  
    08/15/2014 02:30 MST2.52P  40.0P  0.00P  
    08/15/2014 02:45 MST2.52P  40.0P  0.00P  
    08/15/2014 03:00 MST2.52P  40.0P  0.00P  
    08/15/2014 03:15 MST2.51P  39.0P  0.00P  
    08/15/2014 03:30 MST2.51P  39.0P  0.00P  
    08/15/2014 03:45 MST2.50P  38.0P  0.00P  
    08/15/2014 04:00 MST2.50P  38.0P  0.00P  
    08/15/2014 04:15 MST2.50P  38.0P  0.00P  
    08/15/2014 04:30 MST2.50P  38.0P  0.00P  
    08/15/2014 04:45 MST2.49P  37.1P  0.00P  
    08/15/2014 05:00 MST2.49P  37.1P  0.00P  
    08/15/2014 05:15 MST2.49P  37.1P  0.00P  
    08/15/2014 05:30 MST2.48P  36.1P  0.00P  
    08/15/2014 05:45 MST2.48P  36.1P  0.00P  
    08/15/2014 06:00 MST2.48P  36.1P  0.00P  
    08/15/2014 06:15 MST2.48P  36.1P  0.00P  
    08/15/2014 06:30 MST2.47P  35.2P  0.00P  
    08/15/2014 06:45 MST2.47P  35.2P  0.00P  
    08/15/2014 07:00 MST2.47P  35.2P  0.00P  
    08/15/2014 07:15 MST2.47P  35.2P  0.00P  
    08/15/2014 07:30 MST2.46P  34.3P  0.00P  
    08/15/2014 07:45 MST2.46P  34.3P  0.00P  
    08/15/2014 08:00 MST2.46P  34.3P  0.00P  
    08/15/2014 08:15 MST2.46P  34.3P  0.00P  
    08/15/2014 08:30 MST2.45P  33.4P  0.00P  
    08/15/2014 08:45 MST2.45P  33.4P  0.00P  
    08/15/2014 09:00 MST2.45P  33.4P  0.00P  
    08/15/2014 09:15 MST2.45P  33.4P  0.00P  
    08/15/2014 09:30 MST2.44P  32.5P  0.00P  
    08/15/2014 09:45 MST2.44P  32.5P  0.00P  
    08/15/2014 10:00 MST2.44P  32.5P  0.00P  
    08/15/2014 10:15 MST2.44P  32.5P  0.00P  
    08/15/2014 10:30 MST2.43P  31.6P  0.00P  
    08/15/2014 10:45 MST2.43P  31.6P  0.00P  
    08/15/2014 11:00 MST2.43P  31.6P  0.00P  
    08/15/2014 11:15 MST2.42P  30.8P  0.00P  
    08/15/2014 11:30 MST2.42P  30.8P  0.00P  
    08/15/2014 11:45 MST2.42P  30.8P  0.00P  
    08/15/2014 12:00 MST2.41P  29.9P  0.00P  
    08/15/2014 12:15 MST2.41P  29.9P  0.00P  
    08/15/2014 12:30 MST2.41P  29.9P  0.00P  
    08/15/2014 12:45 MST2.40P  29.1P  0.00P  
    08/15/2014 13:00 MST2.41P  29.9P  0.00P  
    08/15/2014 13:15 MST2.40P  29.1P  0.00P  
    08/15/2014 13:30 MST2.40P  29.1P  0.00P  
    08/15/2014 13:45 MST2.40P  29.1P  0.00P  
    08/15/2014 14:00 MST2.39P  28.3P  0.00P  
    08/15/2014 14:15 MST2.39P  28.3P  0.00P  
    08/15/2014 14:30 MST2.39P  28.3P  0.00P  
    08/15/2014 14:45 MST2.39P  28.3P  0.00P  
    08/15/2014 15:00 MST2.39P  28.3P  0.00P  
    08/15/2014 15:15 MST2.39P  28.3P  0.00P  
    08/15/2014 15:30 MST2.39P  28.3P  0.00P  
    08/15/2014 15:45 MST2.39P  28.3P  0.00P  
    08/15/2014 16:00 MST2.38P  27.5P  0.00P  
    08/15/2014 16:15 MST2.38P  27.5P  0.00P  
    08/15/2014 16:30 MST2.38P  27.5P  0.00P  
    08/15/2014 16:45 MST2.38P  27.5P  0.00P  
    08/15/2014 17:00 MST2.37P  26.8P  0.00P  
    08/15/2014 17:14 MST2.37P  26.8P  0.00P  
    08/15/2014 17:15 MST2.37P  26.8P  0.00P  
    08/15/2014 17:29 MST2.37P  26.8P  0.00P  
    08/15/2014 17:30 MST2.37P  26.8P  0.00P  
    08/15/2014 17:45 MST2.37P  26.8P  0.00P  
    08/15/2014 18:00 MST2.37P  26.8P  0.00P  
    08/15/2014 18:15 MST2.37P  26.8P  0.00P  
    08/15/2014 18:30 MST2.36P  26.0P  0.00P  
    08/15/2014 18:45 MST2.36P  26.0P  0.00P  
    08/15/2014 19:00 MST2.36P  26.0P  0.00P  
    08/15/2014 19:15 MST2.44P  32.5P  0.00P  
    08/15/2014 19:30 MST2.99P  107P  0.00P  
    08/15/2014 19:45 MST3.13P  136P  0.00P  
    08/15/2014 20:00 MST3.11P  132P  0.00P  
    08/15/2014 20:15 MST3.08P  125P  0.00P  
    08/15/2014 20:30 MST3.01P  111P  0.00P  
    08/15/2014 20:45 MST2.95P  99.8P  0.00P  
    08/15/2014 21:00 MST2.89P  89.3P  0.00P  
    08/15/2014 21:15 MST2.83P  79.5P  0.00P  
    08/15/2014 21:30 MST2.78P  71.9P  0.00P  
    08/15/2014 21:45 MST2.74P  66.2P  0.00P  
    08/15/2014 22:00 MST2.69P  59.4P  0.00P  
    08/15/2014 22:15 MST2.65P  54.4P  0.00P  
    08/15/2014 22:30 MST2.61P  49.7P  0.00P  
    08/15/2014 22:45 MST2.58P  46.3P  0.00P  
    08/15/2014 23:00 MST2.55P  43.1P  0.00P  
    08/15/2014 23:15 MST2.53P  41.0P  0.00P  
    08/15/2014 23:30 MST2.51P  39.0P  0.00P  
    08/15/2014 23:45 MST2.48P  36.1P  0.00P  
    08/16/2014 00:00 MST2.47P  35.2P  0.00P  
    08/16/2014 00:15 MST2.45P  33.4P  0.00P  
    08/16/2014 00:30 MST2.43P  31.6P  0.00P  
    08/16/2014 00:45 MST2.42P  30.8P  0.00P  
    08/16/2014 01:00 MST2.41P  29.9P  0.00P  
    08/16/2014 01:15 MST2.40P  29.1P  0.00P  
    08/16/2014 01:30 MST2.39P  28.3P  0.00P  
    08/16/2014 01:45 MST2.38P  27.5P  0.00P  
    08/16/2014 02:00 MST2.37P  26.8P  0.00P  
    08/16/2014 02:15 MST2.37P  26.8P  0.00P  
    08/16/2014 02:30 MST2.36P  26.0P  0.00P  
    08/16/2014 02:45 MST2.35P  25.2P  0.00P  
    08/16/2014 03:00 MST2.35P  25.2P  0.00P  
    08/16/2014 03:15 MST2.34P  24.5P  0.00P  
    08/16/2014 03:30 MST2.34P  24.5P  0.00P  
    08/16/2014 03:45 MST2.33P  23.8P  0.00P  
    08/16/2014 04:00 MST2.33P  23.8P  0.00P  
    08/16/2014 04:15 MST2.33P  23.8P  0.00P  
    08/16/2014 04:30 MST2.32P  23.1P  0.00P  
    08/16/2014 04:45 MST2.33P  23.8P  0.00P  
    08/16/2014 05:00 MST2.33P  23.8P  0.00P  
    08/16/2014 05:15 MST2.33P  23.8P  0.00P  
    08/16/2014 05:30 MST2.33P  23.8P  0.00P  
    08/16/2014 05:45 MST2.32P  23.1P  0.00P  
    08/16/2014 06:00 MST2.33P  23.8P  0.00P  
    08/16/2014 06:15 MST2.32P  23.1P  0.00P  
    08/16/2014 06:30 MST2.32P  23.1P  0.00P  
    08/16/2014 06:45 MST2.32P  23.1P  0.00P  
    08/16/2014 07:00 MST2.32P  23.1P  0.00P  
    08/16/2014 07:15 MST2.31P  22.4P  0.00P  
    08/16/2014 07:30 MST2.31P  22.4P  0.00P  
    08/16/2014 07:45 MST2.32P  23.1P  0.00P  
    08/16/2014 08:00 MST2.32P  23.1P  0.00P  
    08/16/2014 08:15 MST2.31P  22.4P  0.00P  
    08/16/2014 08:30 MST2.31P  22.4P  0.00P  
    08/16/2014 08:45 MST2.32P  23.1P  0.00P  
    08/16/2014 09:00 MST2.31P  22.4P  0.00P  
    08/16/2014 09:15 MST2.30P  21.7P  0.00P  
    08/16/2014 09:30 MST2.31P  22.4P  0.00P  
    08/16/2014 09:45 MST2.31P  22.4P  0.00P  
    08/16/2014 10:00 MST2.31P  22.4P  0.00P  
    08/16/2014 10:15 MST2.31P  22.4P  0.00P  
    08/16/2014 10:30 MST2.30P  21.7P  0.00P  
    08/16/2014 10:45 MST2.31P  22.4P  0.00P  
    08/16/2014 11:00 MST2.30P  21.7P  0.00P  
    08/16/2014 11:15 MST2.30P  21.7P  0.00P  
    08/16/2014 11:30 MST2.30P  21.7P  0.00P  
    08/16/2014 11:45 MST2.30P  21.7P  0.00P  
    08/16/2014 12:00 MST2.30P  21.7P  0.00P  
    08/16/2014 12:15 MST2.30P  21.7P  0.00P  
    08/16/2014 12:30 MST2.30P  21.7P  0.00P  
    08/16/2014 12:45 MST2.30P  21.7P  0.00P  
    08/16/2014 13:00 MST2.30P  21.7P  0.00P  
    08/16/2014 13:15 MST2.30P  21.7P  0.00P  
    08/16/2014 13:30 MST2.30P  21.7P  0.00P  
    08/16/2014 13:45 MST2.30P  21.7P  0.00P  
    08/16/2014 14:00 MST2.33P  23.8P  0.00P  
    08/16/2014 14:15 MST2.64P  53.2P  0.00P  
    08/16/2014 14:30 MST2.80P  74.8P  0.00P  
    08/16/2014 14:45 MST2.87P  85.9P  0.00P  
    08/16/2014 15:00 MST2.89P  89.3P  0.00P  
    08/16/2014 15:15 MST2.91P  92.7P  0.00P  
    08/16/2014 15:30 MST2.90P  91.0P  0.00P  
    08/16/2014 15:45 MST2.89P  89.3P  0.00P  
    08/16/2014 16:00 MST2.91P  92.7P  0.00P  
    08/16/2014 16:15 MST2.91P  92.7P  0.00P  
    08/16/2014 16:30 MST2.89P  89.3P  0.00P  
    08/16/2014 16:45 MST2.89P  89.3P  0.00P  
    08/16/2014 17:00 MST2.90P  91.0P  0.00P  
    08/16/2014 17:14 MST2.90P  91.0P  0.00P  
    08/16/2014 17:15 MST2.90P  91.0P  0.00P  
    08/16/2014 17:29 MST2.88P  87.6P  0.00P  
    08/16/2014 17:30 MST2.88P  87.6P  0.00P  
    08/16/2014 17:45 MST2.87P  85.9P  0.00P  
    08/16/2014 18:00 MST2.86P  84.3P  0.00P  
    08/16/2014 18:15 MST2.84P  81.0P  0.00P  
    08/16/2014 18:30 MST2.84P  81.0P  0.00P  
    08/16/2014 18:45 MST2.83P  79.5P  0.00P  
    08/16/2014 19:00 MST2.82P  77.9P  0.00P  
    08/16/2014 19:15 MST2.81P  76.4P  0.00P  
    08/16/2014 19:30 MST2.79P  73.4P  0.00P  
    08/16/2014 19:45 MST2.79P  73.4P  0.00P  
    08/16/2014 20:00 MST2.77P  70.4P  0.00P  
    08/16/2014 20:15 MST2.77P  70.4P  0.00P  
    08/16/2014 20:30 MST2.75P  67.6P  0.00P  
    08/16/2014 20:45 MST2.75P  67.6P  0.00P  
    08/16/2014 21:00 MST2.73P  64.8P  0.01P  
    08/16/2014 21:15 MST2.75P  67.6P  0.00P  
    08/16/2014 21:30 MST2.97P  104P  0.02P  
    08/16/2014 21:45 MST3.34P  189P  0.01P  
    08/16/2014 22:00 MST3.42P  209P  0.00P  
    08/16/2014 22:15 MST3.51P  230P  0.00P  
    08/16/2014 22:30 MST3.54P  239P  0.00P  
    08/16/2014 22:45 MST3.48P  224P  0.04P  
    08/16/2014 23:00 MST3.40P  203P  0.02P  
    08/16/2014 23:15 MST3.31P  181P  0.04P  
    08/16/2014 23:30 MST3.19P  150P  0.00P  
    08/16/2014 23:45 MST3.13P  136P  0.00P  
    08/17/2014 00:00 MST3.09P  128P  0.00P  
    08/17/2014 00:15 MST3.06P  121P  0.00P  
    08/17/2014 00:30 MST3.03P  115P  0.00P  
    08/17/2014 00:45 MST2.98P  105P  0.00P  
    08/17/2014 01:00 MST2.95P  99.8P  0.00P  
    08/17/2014 01:15 MST2.94P  98.0P  0.00P  
    08/17/2014 01:30 MST2.90P  91.0P  0.00P  
    08/17/2014 01:45 MST2.87P  85.9P  0.00P  
    08/17/2014 02:00 MST2.85P  82.6P  0.00P  
    08/17/2014 02:15 MST2.82P  77.9P  0.00P  
    08/17/2014 02:30 MST2.80P  74.8P  0.00P  
    08/17/2014 02:45 MST2.77P  70.4P  0.00P  
    08/17/2014 03:00 MST2.74P  66.2P  0.00P  
    08/17/2014 03:15 MST2.72P  63.4P  0.00P  
    08/17/2014 03:30 MST2.70P  60.7P  0.00P  
    08/17/2014 03:45 MST2.68P  58.2P  0.00P  
    08/17/2014 04:00 MST2.65P  54.4P  0.00P  
    08/17/2014 04:15 MST2.64P  53.2P  0.00P  
    08/17/2014 04:30 MST2.62P  50.8P  0.00P  
    08/17/2014 04:45 MST2.61P  49.7P  0.00P  
    08/17/2014 05:00 MST2.60P  48.5P  0.00P  
    08/17/2014 05:15 MST2.58P  46.3P  0.00P  
    08/17/2014 05:30 MST2.58P  46.3P  0.00P  
    08/17/2014 05:45 MST2.57P  45.2P  0.00P  
    08/17/2014 06:00 MST2.56P  44.1P  0.00P  
    08/17/2014 06:15 MST2.55P  43.1P  0.00P  
    08/17/2014 06:30 MST2.54P  42.0P  0.00P  
    08/17/2014 06:45 MST2.54P  42.0P  0.00P  
    08/17/2014 07:00 MST2.52P  40.0P  0.00P  
    08/17/2014 07:15 MST2.52P  40.0P  0.00P  
    08/17/2014 07:30 MST2.51P  39.0P  0.00P  
    08/17/2014 07:45 MST2.52P  40.0P  0.00P  
    08/17/2014 08:00 MST2.51P  39.0P  0.00P  
    08/17/2014 08:15 MST2.50P  38.0P  0.00P  
    08/17/2014 08:30 MST2.50P  38.0P  0.00P  
    08/17/2014 08:45 MST2.49P  37.1P  0.00P  
    08/17/2014 09:00 MST2.49P  37.1P  0.00P  
    08/17/2014 09:15 MST2.75P  67.6P  0.00P  
    08/17/2014 09:30 MST3.07P  123P  0.00P  
    08/17/2014 09:45 MST3.21P  155P  0.00P  
    08/17/2014 10:00 MST3.25P  165P  0.00P  
    08/17/2014 10:15 MST3.27P  170P  0.00P  
    08/17/2014 10:30 MST3.26P  168P  0.00P  
    08/17/2014 10:45 MST3.24P  163P  0.00P  
    08/17/2014 11:00 MST3.22P  158P  0.00P  
    08/17/2014 11:15 MST3.20P  153P  0.00P  
    08/17/2014 11:30 MST3.18P  148P  0.00P  
    08/17/2014 11:45 MST3.15P  141P  0.00P  
    08/17/2014 12:00 MST3.12P  134P  0.00P  
    08/17/2014 12:15 MST3.09P  128P  0.00P  
    08/17/2014 12:30 MST3.09P  128P  0.00P  
    08/17/2014 12:45 MST3.05P  119P  0.00P  
    08/17/2014 13:00 MST3.02P  113P  0.00P  
    08/17/2014 13:15 MST2.99P  107P  0.00P  
    08/17/2014 13:30 MST2.99P  107P  0.00P  
    08/17/2014 13:45 MST2.95P  99.8P  0.00P  
    08/17/2014 14:00 MST2.93P  96.2P  0.00P  
    08/17/2014 14:15 MST2.91P  92.7P  0.00P  
    08/17/2014 14:30 MST2.89P  89.3P  0.00P  
    08/17/2014 14:45 MST2.87P  85.9P  0.00P  
    08/17/2014 15:00 MST2.84P  81.0P  0.00P  
    08/17/2014 15:15 MST2.82P  77.9P  0.00P  
    08/17/2014 15:30 MST2.82P  77.9P  0.00P  
    08/17/2014 15:45 MST2.81P  76.4P  0.00P  
    08/17/2014 16:00 MST2.79P  73.4P  0.00P  
    08/17/2014 16:15 MST2.78P  71.9P  0.00P  
    08/17/2014 16:30 MST2.75P  67.6P  0.00P  
    08/17/2014 16:45 MST2.74P  66.2P  0.00P  
    08/17/2014 17:00 MST2.74P  66.2P  0.00P  
    08/17/2014 17:14 MST2.72P  63.4P  0.00P  
    08/17/2014 17:15 MST2.72P  63.4P  0.00P  
    08/17/2014 17:29 MST2.70P  60.7P  0.00P  
    08/17/2014 17:30 MST2.70P  60.7P  0.00P  
    08/17/2014 17:45 MST2.71P  62.1P  0.00P  
    08/17/2014 18:00 MST2.69P  59.4P  0.00P  
    08/17/2014 18:15 MST2.68P  58.2P  0.00P  
    08/17/2014 18:30 MST2.68P  58.2P  0.00P  
    08/17/2014 18:45 MST2.67P  56.9P  0.00P  
    08/17/2014 19:00 MST2.67P  56.9P  0.00P  
    08/17/2014 19:15 MST2.66P  55.6P  0.00P  
    08/17/2014 19:30 MST2.65P  54.4P  0.00P  
    08/17/2014 19:45 MST2.64P  53.2P  0.00P  
    08/17/2014 20:00 MST2.64P  53.2P  0.00P  
    08/17/2014 20:15 MST2.63P  52.0P  0.00P  
    08/17/2014 20:30 MST2.63P  52.0P  0.03P  
    08/17/2014 20:45 MST2.62P  50.8P  0.01P  
    08/17/2014 21:00 MST2.61P  49.7P  0.03P  
    08/17/2014 21:15 MST2.61P  49.7P  0.04P  
    08/17/2014 21:30 MST2.61P  49.7P  0.01P  
    08/17/2014 21:45 MST2.61P  49.7P  0.00P  
    08/17/2014 22:00 MST2.59P  47.4P  0.00P  
    08/17/2014 22:15 MST2.59P  47.4P  0.01P  
    08/17/2014 22:30 MST2.58P  46.3P  0.00P  
    08/17/2014 22:45 MST2.59P  47.4P  0.00P  
    08/17/2014 23:00 MST2.58P  46.3P  0.00P  
    08/17/2014 23:15 MST2.64P  53.2P  0.00P  
    08/17/2014 23:30 MST3.22P  158P  0.00P  
    08/17/2014 23:45 MST3.37P  195P  0.00P  
    08/18/2014 00:00 MST3.33P  186P  0.00P  
    08/18/2014 00:15 MST3.32P  184P  0.00P  
    08/18/2014 00:30 MST3.25P  165P  0.00P  
    08/18/2014 00:45 MST3.14P  139P  0.00P  
    08/18/2014 01:00 MST3.08P  125P  0.00P  
    08/18/2014 01:15 MST3.01P  111P  0.00P  
    08/18/2014 01:30 MST2.96P  102P  0.00P  
    08/18/2014 01:45 MST2.90P  91.0P  0.00P  
    08/18/2014 02:00 MST2.88P  87.6P  0.00P  
    08/18/2014 02:15 MST2.82P  77.9P  0.00P  
    08/18/2014 02:30 MST2.77P  70.4P  0.00P  
    08/18/2014 02:45 MST2.75P  67.6P  0.00P  
    08/18/2014 03:00 MST2.71P  62.1P  0.00P  
    08/18/2014 03:15 MST2.68P  58.2P  0.00P  
    08/18/2014 03:30 MST2.66P  55.6P  0.00P  
    08/18/2014 03:45 MST2.64P  53.2P  0.00P  
    08/18/2014 04:00 MST2.62P  50.8P  0.00P  
    08/18/2014 04:15 MST2.60P  48.5P  0.00P  
    08/18/2014 04:30 MST2.59P  47.4P  0.00P  
    08/18/2014 04:45 MST2.58P  46.3P  0.00P  
    08/18/2014 05:00 MST2.57P  45.2P  0.00P  
    08/18/2014 05:15 MST2.56P  44.1P  0.00P  
    08/18/2014 05:30 MST2.55P  43.1P  0.00P  
    08/18/2014 05:45 MST2.54P  42.0P  0.00P  
    08/18/2014 06:00 MST2.53P  41.0P  0.00P  
    08/18/2014 06:15 MST2.53P  41.0P  0.00P  
    08/18/2014 06:30 MST2.53P  41.0P  0.00P  
    08/18/2014 06:45 MST2.52P  40.0P  0.00P  
    08/18/2014 07:00 MST2.52P  40.0P  0.00P  
    08/18/2014 07:15 MST2.52P  40.0P  0.00P  
    08/18/2014 07:30 MST2.53P  41.0P  0.00P  
    08/18/2014 07:45 MST3.54P  239P  0.00P  
    08/18/2014 07:59 MST4.03P  394P  0.00P  
    08/18/2014 08:00 MST4.03P  394P  0.00P  
    08/18/2014 08:14 MST4.26P  489P  0.00P  
    08/18/2014 08:15 MST4.26P  489P  0.00P  
    08/18/2014 08:29 MST4.44P  565P  0.00P  
    08/18/2014 08:30 MST4.44P  565P  0.00P  
    08/18/2014 08:44 MST4.51P  603P  0.00P  
    08/18/2014 08:45 MST4.51P  603P  0.00P  
    08/18/2014 08:59 MST4.64P  665P  0.00P  
    08/18/2014 09:00 MST4.64P  665P  0.00P  
    08/18/2014 09:14 MST4.63P  660P  0.00P  
    08/18/2014 09:15 MST4.63P  660P  0.00P  
    08/18/2014 09:29 MST4.78P  738P  0.00P  
    08/18/2014 09:30 MST4.78P  738P  0.00P  
    08/18/2014 09:44 MST4.67P  683P  0.00P  
    08/18/2014 09:45 MST4.67P  683P  0.00P  
    08/18/2014 09:59 MST4.77P  732P  0.00P  
    08/18/2014 10:00 MST4.77P  732P  0.00P  
    08/18/2014 10:14 MST4.83P  770P  0.00P  
    08/18/2014 10:15 MST4.83P  770P  0.00P  
    08/18/2014 10:29 MST4.83P  770P  0.00P  
    08/18/2014 10:30 MST4.83P  770P  0.00P  
    08/18/2014 10:44 MST4.78P  738P  0.00P  
    08/18/2014 10:45 MST4.78P  738P  0.00P  
    08/18/2014 10:59 MST4.89P  803P  0.00P  
    08/18/2014 11:00 MST4.89P  803P  0.00P  
    08/18/2014 11:14 MST4.94P  830P  0.00P  
    08/18/2014 11:15 MST4.94P  830P  0.00P  
    08/18/2014 11:29 MST4.97P  850P  0.00P  
    08/18/2014 11:30 MST4.97P  850P  0.00P  
    08/18/2014 11:44 MST4.94P  830P  0.00P  
    08/18/2014 11:45 MST4.94P  830P  0.00P  
    08/18/2014 11:59 MST4.92P  823P  0.00P  
    08/18/2014 12:00 MST4.92P  823P  0.00P  
    08/18/2014 12:14 MST4.81P  757P  0.00P  
    08/18/2014 12:15 MST4.81P  757P  0.00P  
    08/18/2014 12:29 MST5.03P  885P  0.00P  
    08/18/2014 12:30 MST5.03P  885P  0.00P  
    08/18/2014 12:44 MST4.97P  850P  0.00P  
    08/18/2014 12:45 MST4.97P  850P  0.00P  
    08/18/2014 12:59 MST4.88P  796P  0.00P  
    08/18/2014 13:00 MST4.88P  796P  0.00P  
    08/18/2014 13:14 MST4.91P  816P  0.00P  
    08/18/2014 13:15 MST4.91P  816P  0.00P  
    08/18/2014 13:29 MST4.93P  830P  0.00P  
    08/18/2014 13:30 MST4.93P  830P  0.00P  
    08/18/2014 13:44 MST4.95P  837P  0.00P  
    08/18/2014 13:45 MST4.95P  837P  0.00P  
    08/18/2014 13:59 MST4.94P  830P  0.00P  
    08/18/2014 14:00 MST4.94P  830P  0.00P  
    08/18/2014 14:14 MST5.03P  885P  0.00P  
    08/18/2014 14:15 MST5.03P  885P  0.00P  
    08/18/2014 14:29 MST4.86P  783P  0.00P  
    08/18/2014 14:30 MST4.86P  783P  0.00P  
    08/18/2014 14:44 MST4.93P  830P  0.00P  
    08/18/2014 14:45 MST4.93P  830P  0.00P  
    08/18/2014 14:59 MST5.03P  885P  0.00P  
    08/18/2014 15:00 MST5.03P  885P  0.00P  
    08/18/2014 15:14 MST5.03P  885P  0.00P  
    08/18/2014 15:15 MST5.03P  885P  0.00P  
    08/18/2014 15:29 MST4.94P  830P  0.00P  
    08/18/2014 15:30 MST4.94P  830P  0.00P  
    08/18/2014 15:44 MST5.06P  906P  0.00P  
    08/18/2014 15:45 MST5.06P  906P  0.00P  
    08/18/2014 15:59 MST5.10P  935P  0.00P  
    08/18/2014 16:00 MST5.10P  935P  0.00P  
    08/18/2014 16:14 MST5.06P  906P  0.00P  
    08/18/2014 16:15 MST5.06P  906P  0.00P  
    08/18/2014 16:29 MST5.07P  914P  0.00P  
    08/18/2014 16:30 MST5.07P  914P  0.00P  
    08/18/2014 16:44 MST5.10P  935P  0.00P  
    08/18/2014 16:45 MST5.10P  935P  0.00P  
    08/18/2014 16:59 MST5.22P  1,010P  0.00P  
    08/18/2014 17:00 MST5.22P  1,010P  0.00P  
    08/18/2014 17:14 MST4.99P  864P  0.00P  
    08/18/2014 17:15 MST4.99P  864P  0.00P  
    08/18/2014 17:29 MST4.80P  751P  0.00P  
    08/18/2014 17:30 MST4.80P  751P  0.00P  
    08/18/2014 17:44 MST4.70P  695P  0.00P  
    08/18/2014 17:45 MST4.70P  695P  0.00P  
    08/18/2014 17:59 MST4.67P  683P  0.13P  
    08/18/2014 18:00 MST4.67P  683P  0.00P  
    08/18/2014 18:14 MST4.49P  592P  0.07P  
    08/18/2014 18:15 MST4.49P  592P  0.00P  
    08/18/2014 18:29 MST4.53P  608P  0.00P  
    08/18/2014 18:30 MST4.53P  608P  0.00P  
    08/18/2014 18:44 MST4.34P  523P  0.00P  
    08/18/2014 18:45 MST4.34P  523P  0.00P  
    08/18/2014 18:59 MST4.26P  489P  0.00P  
    08/18/2014 19:00 MST4.26P  489P  0.00P  
    08/18/2014 19:14 MST4.24P  479P  0.02P  
    08/18/2014 19:15 MST4.24P  479P  0.00P  
    08/18/2014 19:29 MST4.16P  447P  0.04P  
    08/18/2014 19:30 MST4.16P  447P  0.00P  
    08/18/2014 19:45 MST4.32P  513P  0.08P  
    08/18/2014 20:00 MST4.65P  671P  0.07P  
    08/18/2014 20:15 MST4.57P  631P  0.03P  
    08/18/2014 20:30 MST4.55P  619P  0.02P  
    08/18/2014 20:45 MST4.75P  726P  0.04P  
    08/18/2014 21:00 MST4.57P  631P  0.04P  
    08/18/2014 21:15 MST4.46P  575P  0.04P  
    08/18/2014 21:30 MST4.40P  549P  0.00P  
    08/18/2014 21:45 MST4.30P  504P  0.01P  
    08/18/2014 22:00 MST4.22P  470P  0.00P  
    08/18/2014 22:15 MST4.12P  429P  0.00P  
    08/18/2014 22:30 MST4.06P  407P  0.00P  
    08/18/2014 22:45 MST4.00P  386P  0.00P  
    08/18/2014 23:00 MST3.94P  361P  0.00P  
    08/18/2014 23:15 MST3.93P  357P  0.00P  
    08/18/2014 23:30 MST3.83P  327P  0.00P  
    08/18/2014 23:45 MST3.78P  308P  0.00P  
    08/19/2014 00:00 MST3.71P  287P  0.00P  
    08/19/2014 00:15 MST3.66P  274P  0.00P  
    08/19/2014 00:30 MST3.62P  261P  0.00P  
    08/19/2014 00:45 MST3.63P  264P  0.00P  
    08/19/2014 01:00 MST3.57P  248P  0.00P  
    08/19/2014 01:15 MST3.58P  251P  0.00P  
    08/19/2014 01:30 MST3.60P  254P  0.00P  
    08/19/2014 01:45 MST3.57P  248P  0.00P  
    08/19/2014 02:00 MST3.63P  264P  0.00P  
    08/19/2014 02:15 MST3.64P  267P  0.00P  
    08/19/2014 02:30 MST3.63P  264P  0.00P  
    08/19/2014 02:45 MST3.66P  274P  0.00P  
    08/19/2014 03:00 MST3.61P  258P  0.00P  
    08/19/2014 03:15 MST3.61P  258P  0.00P  
    08/19/2014 03:30 MST3.60P  254P  0.00P  
    08/19/2014 03:45 MST3.56P  245P  0.00P  
    08/19/2014 04:00 MST3.54P  239P  0.00P  
    08/19/2014 04:15 MST3.51P  230P  0.00P  
    08/19/2014 04:30 MST3.48P  224P  0.00P  
    08/19/2014 04:45 MST3.45P  215P  0.00P  
    08/19/2014 05:00 MST3.43P  209P  0.00P  
    08/19/2014 05:15 MST3.39P  201P  0.00P  
    08/19/2014 05:30 MST3.35P  189P  0.00P  
    08/19/2014 05:45 MST3.34P  189P  0.00P  
    08/19/2014 06:00 MST3.32P  184P  0.00P  
    08/19/2014 06:15 MST3.28P  173P  0.00P  
    08/19/2014 06:30 MST3.27P  170P  0.00P  
    08/19/2014 06:45 MST3.25P  165P  0.00P  
    08/19/2014 07:00 MST3.22P  158P  0.00P  
    08/19/2014 07:15 MST3.23P  160P  0.00P  
    08/19/2014 07:30 MST3.22P  158P  0.00P  
    08/19/2014 07:45 MST3.17P  146P  0.00P  
    08/19/2014 08:00 MST3.19P  150P  0.00P  
    08/19/2014 08:15 MST3.16P  143P  0.00P  
    08/19/2014 08:30 MST3.15P  141P  0.00P  
    08/19/2014 08:45 MST3.14P  139P  0.00P  
    08/19/2014 09:00 MST3.14P  139P  0.00P  
    08/19/2014 09:15 MST3.12P  134P  0.00P  
    08/19/2014 09:30 MST3.12P  134P  0.00P  
    08/19/2014 09:45 MST3.09P  128P  0.00P  
    08/19/2014 10:00 MST3.10P  130P  0.00P  
    08/19/2014 10:15 MST3.08P  125P  0.00P  
    08/19/2014 10:30 MST3.06P  121P  0.00P  
    08/19/2014 10:45 MST3.06P  121P  0.00P  
    08/19/2014 11:00 MST3.05P  119P  0.00P  
    08/19/2014 11:15 MST3.06P  121P  0.00P  
    08/19/2014 11:30 MST3.06P  121P  0.00P  
    08/19/2014 11:45 MST3.05P  119P  0.00P  
    08/19/2014 12:00 MST3.04P  117P  0.00P  
    08/19/2014 12:15 MST3.05P  119P  0.00P  
    08/19/2014 12:30 MST3.03P  115P  0.00P  
    08/19/2014 12:45 MST3.04P  117P  0.00P  
    08/19/2014 13:00 MST3.03P  115P  0.00P  
    08/19/2014 13:15 MST3.03P  115P  0.00P  
    08/19/2014 13:30 MST3.02P  113P  0.00P  
    08/19/2014 13:45 MST3.02P  113P  0.00P  
    08/19/2014 14:00 MST3.02P  113P  0.00P  
    08/19/2014 14:15 MST3.03P  115P  0.00P  
    08/19/2014 14:30 MST3.01P  111P  0.00P  
    08/19/2014 14:45 MST3.00P  109P  0.00P  
    08/19/2014 15:00 MST3.00P  109P  0.00P  
    08/19/2014 15:15 MST2.99P  107P  0.00P  
    08/19/2014 15:30 MST2.99P  107P  0.00P  
    08/19/2014 15:45 MST2.98P  105P  0.00P  
    08/19/2014 16:00 MST2.96P  102P  0.00P  
    08/19/2014 16:15 MST2.96P  102P  0.00P  
    08/19/2014 16:30 MST2.97P  104P  0.00P  
    08/19/2014 16:45 MST2.94P  98.0P  0.00P  
    08/19/2014 17:00 MST2.94P  98.0P  0.00P  
    08/19/2014 17:15 MST2.94P  98.0P  0.00P  
    08/19/2014 17:30 MST2.99P  107P  0.00P  
    08/19/2014 17:45 MST3.17P  146P  0.00P  
    08/19/2014 18:00 MST3.26P  168P  0.00P  
    08/19/2014 18:15 MST3.23P  160P  0.00P  
    08/19/2014 18:30 MST3.21P  155P  0.10P  
    08/19/2014 18:45 MST3.21P  155P  0.02P  
    08/19/2014 19:00 MST3.24P  163P  0.01P  
    08/19/2014 19:14 MST3.26P  168P  0.01P  
    08/19/2014 19:15 MST3.26P  168P  0.00P  
    08/19/2014 19:29 MST3.66P  274P  0.02P  
    08/19/2014 19:30 MST3.66P  274P  0.00P  
    08/19/2014 19:45 MST3.80P  316P  0.00P  
    08/19/2014 20:00 MST3.83P  327P  0.00P  
    08/19/2014 20:15 MST3.82P  323P  0.00P  
    08/19/2014 20:30 MST3.86P  334P  0.00P  
    08/19/2014 20:45 MST3.79P  312P  0.00P  
    08/19/2014 21:00 MST3.74P  298P  0.00P  
    08/19/2014 21:15 MST3.69P  281P  0.00P  
    08/19/2014 21:30 MST3.64P  267P  0.00P  
    08/19/2014 21:45 MST3.60P  254P  0.00P  
    08/19/2014 22:00 MST3.67P  277P  0.00P  
    08/19/2014 22:15 MST3.79P  312P  0.00P  
    08/19/2014 22:30 MST3.87P  338P  0.01P  
    08/19/2014 22:45 MST3.97P  374P  0.00P  
    08/19/2014 23:00 MST3.99P  382P  0.00P  
    08/19/2014 23:15 MST4.00P  386P  0.00P  
    08/19/2014 23:30 MST4.04P  398P  0.00P  
    08/19/2014 23:45 MST3.96P  369P  0.00P  
    08/20/2014 00:00 MST4.01P  390P  0.00P  
    08/20/2014 00:15 MST4.00P  386P  0.00P  
    08/20/2014 00:30 MST3.99P  382P  0.00P  
    08/20/2014 00:45 MST3.97P  374P  0.00P  
    08/20/2014 01:00 MST3.95P  365P  0.00P  
    08/20/2014 01:15 MST3.84P  331P  0.00P  
    08/20/2014 01:30 MST3.83P  327P  0.00P  
    08/20/2014 01:45 MST3.79P  312P  0.00P  
    08/20/2014 02:00 MST3.77P  305P  0.00P  
    08/20/2014 02:15 MST3.74P  298P  0.00P  
    08/20/2014 02:30 MST3.73P  294P  0.00P  
    08/20/2014 02:45 MST3.69P  281P  0.00P  
    08/20/2014 03:00 MST3.69P  281P  0.00P  
    08/20/2014 03:15 MST3.66P  274P  0.00P  
    08/20/2014 03:30 MST3.64P  267P  0.00P  
    08/20/2014 03:45 MST3.64P  267P  0.00P  
    08/20/2014 04:00 MST3.62P  261P  0.00P  
    08/20/2014 04:15 MST3.63P  264P  0.00P  
    08/20/2014 04:30 MST3.64P  267P  0.00P  
    08/20/2014 04:45 MST3.66P  274P  0.00P  
    08/20/2014 05:00 MST3.66P  274P  0.00P  
    08/20/2014 05:15 MST3.72P  291P  0.00P  
    08/20/2014 05:30 MST3.73P  294P  0.00P  
    08/20/2014 05:45 MST3.75P  301P  0.00P  
    08/20/2014 06:00 MST3.82P  323P  0.00P  
    08/20/2014 06:15 MST3.79P  312P  0.00P  
    08/20/2014 06:30 MST3.78P  308P  0.00P  
    08/20/2014 06:45 MST3.79P  312P  0.00P  
    08/20/2014 07:00 MST3.79P  312P  0.00P  
    08/20/2014 07:15 MST3.79P  312P  0.00P  
    08/20/2014 07:30 MST3.79P  312P  0.00P  
    08/20/2014 07:45 MST3.80P  316P  0.00P  
    08/20/2014 08:00 MST3.75P  301P  0.00P  
    08/20/2014 08:15 MST3.73P  294P  0.00P  
    08/20/2014 08:30 MST3.69P  281P  0.00P  
    08/20/2014 08:45 MST3.66P  274P  0.00P  
    08/20/2014 09:00 MST3.65P  271P  0.00P  
    08/20/2014 09:15 MST3.60P  254P  0.00P  
    08/20/2014 09:30 MST3.57P  248P  0.00P  
    08/20/2014 09:45 MST3.52P  233P  0.00P  
    08/20/2014 10:00 MST3.48P  224P  0.00P  
    08/20/2014 10:15 MST3.49P  227P  0.00P  
    08/20/2014 10:30 MST3.46P  218P  0.00P  
    08/20/2014 10:45 MST3.44P  212P  0.00P  
    08/20/2014 11:00 MST3.41P  206P  0.00P  
    08/20/2014 11:15 MST3.36P  192P  0.00P  
    08/20/2014 11:30 MST3.38P  198P  0.00P  
    08/20/2014 11:45 MST3.36P  192P  0.00P  
    08/20/2014 12:00 MST3.32P  184P  0.00P  
    08/20/2014 12:15 MST3.31P  181P  0.00P  
    08/20/2014 12:30 MST3.30P  178P  0.00P  
    08/20/2014 12:45 MST3.29P  176P  0.00P  
    08/20/2014 13:00 MST3.27P  170P  0.00P  
    08/20/2014 13:15 MST3.25P  165P  0.00P  
    08/20/2014 13:30 MST3.23P  160P  0.00P  
    08/20/2014 13:45 MST3.23P  160P  0.00P  
    08/20/2014 14:00 MST3.20P  153P  0.01P  
    08/20/2014 14:15 MST3.18P  148P  0.02P  
    08/20/2014 14:30 MST3.16P  143P  0.01P  
    08/20/2014 14:45 MST3.14P  139P  0.00P  
    08/20/2014 15:00 MST3.15P  141P  0.00P  
    08/20/2014 15:15 MST3.13P  136P  0.00P  
    08/20/2014 15:30 MST3.12P  134P  0.00P  
    08/20/2014 15:45 MST3.11P  132P  0.00P  
    08/20/2014 16:00 MST3.09P  128P  0.00P  
    08/20/2014 16:15 MST3.09P  128P  0.01P  
    08/20/2014 16:30 MST3.07P  123P  0.00P  
    08/20/2014 16:45 MST3.05P  119P  0.00P  
    08/20/2014 17:00 MST3.05P  119P  0.00P  
    08/20/2014 17:15 MST3.02P  113P  0.00P  
    08/20/2014 17:30 MST3.01P  111P  0.00P  
    08/20/2014 17:45 MST3.01P  111P  0.00P  
    08/20/2014 18:00 MST2.99P  107P  0.00P  
    08/20/2014 18:15 MST2.97P  104P  0.00P  
    08/20/2014 18:30 MST2.98P  105P  0.00P  
    08/20/2014 18:45 MST2.96P  102P  0.00P  
    08/20/2014 19:00 MST2.96P  102P  0.00P  
    08/20/2014 19:14 MST2.96P  102P  0.00P  
    08/20/2014 19:15 MST2.96P  102P  0.00P  
    08/20/2014 19:29 MST2.94P  98.0P  0.00P  
    08/20/2014 19:30 MST2.94P  98.0P  0.00P  
    08/20/2014 19:45 MST2.94P  98.0P  0.00P  
    08/20/2014 20:00 MST2.93P  96.2P  0.00P  
    08/20/2014 20:15 MST2.93P  96.2P  0.00P  
    08/20/2014 20:30 MST2.92P  94.4P  0.00P  
    08/20/2014 20:45 MST2.91P  92.7P  0.00P  
    08/20/2014 21:00 MST2.90P  91.0P  0.00P  
    08/20/2014 21:15 MST2.88P  87.6P  0.00P  
    08/20/2014 21:30 MST2.89P  89.3P  0.00P  
    08/20/2014 21:45 MST2.85P  82.6P  0.00P  
    08/20/2014 22:00 MST2.88P  87.6P  0.00P  
    08/20/2014 22:15 MST2.86P  84.3P  0.00P  
    08/20/2014 22:30 MST2.86P  84.3P  0.00P  
    08/20/2014 22:45 MST2.86P  84.3P  0.00P  
    08/20/2014 23:00 MST2.85P  82.6P  0.00P  
    08/20/2014 23:15 MST2.83P  79.5P  0.00P  
    08/20/2014 23:30 MST2.80P  74.8P  0.00P  
    08/20/2014 23:45 MST2.82P  77.9P  0.00P  
    08/21/2014 00:00 MST2.82P  77.9P  0.00P  
    08/21/2014 00:15 MST2.80P  74.8P  0.00P  
    08/21/2014 00:30 MST2.80P  74.8P  0.00P  
    08/21/2014 00:45 MST2.80P  74.8P  0.00P  
    08/21/2014 01:00 MST2.79P  73.4P  0.00P  
    08/21/2014 01:15 MST2.79P  73.4P  0.00P  
    08/21/2014 01:30 MST2.78P  71.9P  0.00P  
    08/21/2014 01:45 MST2.77P  70.4P  0.00P  
    08/21/2014 02:00 MST2.76P  69.0P  0.00P  
    08/21/2014 02:15 MST2.76P  69.0P  0.00P  
    08/21/2014 02:30 MST2.76P  69.0P  0.00P  
    08/21/2014 02:45 MST2.74P  66.2P  0.00P  
    08/21/2014 03:00 MST2.74P  66.2P  0.00P  
    08/21/2014 03:15 MST2.75P  67.6P  0.00P  
    08/21/2014 03:30 MST2.75P  67.6P  0.00P  
    08/21/2014 03:45 MST2.74P  66.2P  0.00P  
    08/21/2014 04:00 MST2.73P  64.8P  0.00P  
    08/21/2014 04:15 MST2.73P  64.8P  0.00P  
    08/21/2014 04:30 MST2.73P  64.8P  0.00P  
    08/21/2014 04:45 MST2.72P  63.4P  0.00P  
    08/21/2014 05:00 MST2.73P  64.8P  0.00P  
    08/21/2014 05:15 MST2.71P  62.1P  0.00P  
    08/21/2014 05:30 MST2.71P  62.1P  0.00P  
    08/21/2014 05:45 MST2.69P  59.4P  0.00P  
    08/21/2014 06:00 MST2.70P  60.7P  0.00P  
    08/21/2014 06:15 MST2.70P  60.7P  0.00P  
    08/21/2014 06:30 MST2.69P  59.4P  0.00P  
    08/21/2014 06:45 MST2.70P  60.7P  0.00P  
    08/21/2014 07:00 MST2.69P  59.4P  0.00P  
    08/21/2014 07:15 MST2.68P  58.2P  0.00P  
    08/21/2014 07:30 MST2.68P  58.2P  0.00P  
    08/21/2014 07:45 MST2.68P  58.2P  0.00P  
    08/21/2014 08:00 MST2.68P  58.2P  0.00P  
    08/21/2014 08:15 MST2.67P  56.9P  0.00P  
    08/21/2014 08:30 MST2.67P  56.9P  0.00P  
    08/21/2014 08:45 MST2.66P  55.6P  0.00P  
    08/21/2014 09:00 MST2.67P  56.9P  0.00P  
    08/21/2014 09:15 MST2.67P  56.9P  0.00P  
    08/21/2014 09:30 MST2.64P  53.2P  0.00P  
    08/21/2014 09:45 MST2.65P  54.4P  0.00P  
    08/21/2014 10:00 MST2.64P  53.2P  0.00P  
    08/21/2014 10:15 MST2.64P  53.2P  0.00P  
    08/21/2014 10:30 MST2.64P  53.2P  0.00P  
    08/21/2014 10:45 MST2.65P  54.4P  0.00P  
    08/21/2014 11:00 MST2.64P  53.2P  0.00P  
    08/21/2014 11:15 MST2.64P  53.2P  0.00P  
    08/21/2014 11:30 MST2.63P  52.0P  0.00P  
    08/21/2014 11:45 MST2.63P  52.0P  0.00P  
    08/21/2014 12:00 MST2.63P  52.0P  0.00P  
    08/21/2014 12:15 MST2.62P  50.8P  0.00P  
    08/21/2014 12:30 MST2.62P  50.8P  0.00P  
    08/21/2014 12:45 MST2.61P  49.7P  0.00P  
    08/21/2014 13:00 MST2.61P  49.7P  0.00P  
    08/21/2014 13:15 MST2.61P  49.7P  0.00P  
    08/21/2014 13:30 MST2.61P  49.7P  0.00P  
    08/21/2014 13:45 MST2.59P  47.4P  0.00P  
    08/21/2014 14:00 MST2.59P  47.4P  0.00P  
    08/21/2014 14:15 MST2.60P  48.5P  0.00P  
    08/21/2014 14:30 MST2.58P  46.3P  0.00P  
    08/21/2014 14:45 MST2.59P  47.4P  0.00P  
    08/21/2014 15:00 MST2.57P  45.2P  0.00P  
    08/21/2014 15:15 MST2.58P  46.3P  0.00P  
    08/21/2014 15:30 MST2.56P  44.1P  0.00P  
    08/21/2014 15:45 MST2.57P  45.2P  0.00P  
    08/21/2014 16:00 MST2.57P  45.2P  0.00P  
    08/21/2014 16:15 MST2.57P  45.2P  0.00P  
    08/21/2014 16:30 MST2.56P  44.1P  0.00P  
    08/21/2014 16:45 MST2.57P  45.2P  0.00P  
    08/21/2014 17:00 MST2.55P  43.1P  0.00P  
    08/21/2014 17:15 MST2.56P  44.1P  0.00P  
    08/21/2014 17:30 MST2.56P  44.1P  0.00P  
    08/21/2014 17:45 MST2.55P  43.1P  0.00P  
    08/21/2014 18:00 MST2.55P  43.1P  0.00P  
    08/21/2014 18:15 MST2.55P  43.1P  0.00P  
    08/21/2014 18:30 MST2.54P  42.0P  0.00P  
    08/21/2014 18:45 MST2.54P  42.0P  0.00P  
    08/21/2014 19:00 MST2.54P  42.0P  0.00P  
    08/21/2014 19:14 MST2.54P  42.0P  0.00P  
    08/21/2014 19:15 MST2.54P  42.0P  0.00P  
    08/21/2014 19:29 MST2.53P  41.0P  0.00P  
    08/21/2014 19:30 MST2.53P  41.0P  0.00P  
    08/21/2014 19:45 MST2.53P  41.0P  0.00P  
    08/21/2014 20:00 MST2.52P  40.0P  0.00P  
    08/21/2014 20:15 MST2.52P  40.0P  0.00P  
    08/21/2014 20:30 MST2.52P  40.0P  0.00P  
    08/21/2014 20:45 MST2.53P  41.0P  0.00P  
    08/21/2014 21:00 MST2.52P  40.0P  0.00P  
    08/21/2014 21:15 MST2.51P  39.0P  0.00P  
    08/21/2014 21:30 MST2.51P  39.0P  0.00P  
    08/21/2014 21:45 MST2.51P  39.0P  0.00P  
    08/21/2014 22:00 MST2.51P  39.0P  0.00P  
    08/21/2014 22:15 MST2.52P  40.0P  0.00P  
    08/21/2014 22:30 MST2.52P  40.0P  0.00P  
    08/21/2014 22:45 MST2.52P  40.0P  0.00P  
    08/21/2014 23:00 MST2.53P  41.0P  0.00P  
    08/21/2014 23:15 MST2.56P  44.1P  0.00P  
    08/21/2014 23:30 MST2.59P  47.4P  0.00P  
    08/21/2014 23:45 MST2.64P  53.2P  0.00P  
    08/22/2014 00:00 MST2.69P  59.4P  0.00P  
    08/22/2014 00:15 MST2.72P  63.4P  0.00P  
    08/22/2014 00:30 MST2.76P  69.0P  0.00P  
    08/22/2014 00:45 MST2.77P  70.4P  0.00P  
    08/22/2014 01:00 MST2.78P  71.9P  0.00P  
    08/22/2014 01:15 MST2.79P  73.4P  0.00P  
    08/22/2014 01:30 MST2.79P  73.4P  0.00P  
    08/22/2014 01:45 MST2.79P  73.4P  0.00P  
    08/22/2014 02:00 MST2.77P  70.4P  0.00P  
    08/22/2014 02:15 MST2.79P  73.4P  0.00P  
    08/22/2014 02:30 MST2.78P  71.9P  0.00P  
    08/22/2014 02:45 MST2.80P  74.8P  0.00P  
    08/22/2014 03:00 MST2.78P  71.9P  0.00P  
    08/22/2014 03:15 MST2.79P  73.4P  0.00P  
    08/22/2014 03:30 MST2.77P  70.4P  0.00P  
    08/22/2014 03:45 MST2.77P  70.4P  0.00P  
    08/22/2014 04:00 MST2.76P  69.0P  0.00P  
    08/22/2014 04:15 MST2.76P  69.0P  0.00P  
    08/22/2014 04:30 MST2.75P  67.6P  0.00P  
    08/22/2014 04:45 MST2.74P  66.2P  0.00P  
    08/22/2014 05:00 MST2.74P  66.2P  0.00P  
    08/22/2014 05:15 MST2.74P  66.2P  0.00P  
    08/22/2014 05:30 MST2.73P  64.8P  0.00P  
    08/22/2014 05:45 MST2.73P  64.8P  0.00P  
    08/22/2014 06:00 MST2.72P  63.4P  0.00P  
    08/22/2014 06:15 MST2.74P  66.2P  0.00P  
    08/22/2014 06:30 MST2.73P  64.8P  0.00P  
    08/22/2014 06:45 MST2.72P  63.4P  0.00P  
    08/22/2014 07:00 MST2.71P  62.1P  0.00P  
    08/22/2014 07:15 MST2.71P  62.1P  0.00P  
    08/22/2014 07:30 MST2.69P  59.4P  0.00P  
    08/22/2014 07:45 MST2.69P  59.4P  0.00P  
    08/22/2014 08:00 MST2.70P  60.7P  0.00P  
    08/22/2014 08:15 MST2.69P  59.4P  0.00P  
    08/22/2014 08:30 MST2.68P  58.2P  0.00P  
    08/22/2014 08:45 MST2.67P  56.9P  0.00P  
    08/22/2014 09:00 MST2.67P  56.9P  0.00P  
    08/22/2014 09:15 MST2.67P  56.9P  0.00P  
    08/22/2014 09:30 MST2.65P  54.4P  0.00P  
    08/22/2014 09:45 MST2.67P  56.9P  0.00P  
    08/22/2014 10:00 MST2.66P  55.6P  0.00P  
    08/22/2014 10:15 MST2.65P  54.4P  0.00P  
    08/22/2014 10:30 MST2.64P  53.2P  0.00P  
    08/22/2014 10:45 MST2.64P  53.2P  0.00P  
    08/22/2014 11:00 MST2.63P  52.0P  0.00P  
    08/22/2014 11:15 MST2.63P  52.0P  0.00P  
    08/22/2014 11:30 MST2.62P  50.8P  0.00P  
    08/22/2014 11:45 MST2.62P  50.8P  0.00P  
    08/22/2014 12:00 MST2.62P  50.8P  0.00P  
    08/22/2014 12:15 MST2.62P  50.8P  0.00P  
    08/22/2014 12:30 MST2.62P  50.8P  0.00P  
    08/22/2014 12:45 MST2.62P  50.8P  0.00P  
    08/22/2014 13:00 MST2.61P  49.7P  0.00P  
    08/22/2014 13:15 MST2.60P  48.5P  0.00P  
    08/22/2014 13:30 MST2.59P  47.4P  0.00P  
    08/22/2014 13:45 MST2.60P  48.5P  0.00P  
    08/22/2014 14:00 MST2.59P  47.4P  0.01P  
    08/22/2014 14:15 MST2.61P  49.7P  0.02P  
    08/22/2014 14:30 MST2.61P  49.7P  0.02P  
    08/22/2014 14:45 MST2.66P  55.6P  0.08P  
    08/22/2014 15:00 MST2.96P  102P  0.23P  
    08/22/2014 15:15 MST3.50P  230P  0.01P  
    08/22/2014 15:30 MST3.90P  350P  0.00P  
    08/22/2014 15:45 MST4.11P  424P  0.00P  
    08/22/2014 16:00 MST4.06P  407P  0.00P  
    08/22/2014 16:15 MST4.16P  447P  0.00P  
    08/22/2014 16:30 MST4.17P  451P  0.00P  
    08/22/2014 16:45 MST4.07P  411P  0.00P  
    08/22/2014 17:00 MST3.91P  354P  0.00P  
    08/22/2014 17:15 MST3.84P  331P  0.00P  
    08/22/2014 17:30 MST3.85P  331P  0.00P  
    08/22/2014 17:45 MST3.78P  308P  0.00P  
    08/22/2014 18:00 MST3.76P  305P  0.00P  
    08/22/2014 18:15 MST3.66P  274P  0.00P  
    08/22/2014 18:30 MST3.51P  230P  0.00P  
    08/22/2014 18:45 MST3.38P  198P  0.00P  
    08/22/2014 19:00 MST3.25P  165P  0.00P  
    08/22/2014 19:15 MST3.12P  134P  0.00P  
    08/22/2014 19:29 MST3.12P  134P  0.00P  
    08/22/2014 19:30 MST3.01P  111P  0.00P  
    08/22/2014 19:44 MST3.01P  111P  0.00P  
    08/22/2014 19:45 MST2.93P  96.2P  0.00P  
    08/22/2014 20:00 MST2.85P  82.6P  0.00P  
    08/22/2014 20:15 MST2.78P  71.9P  0.00P  
    08/22/2014 20:30 MST2.73P  64.8P  0.00P  
    08/22/2014 20:45 MST2.68P  58.2P  0.00P  
    08/22/2014 21:00 MST2.65P  54.4P  0.00P  
    08/22/2014 21:15 MST2.61P  49.7P  0.00P  
    08/22/2014 21:30 MST2.59P  47.4P  0.00P  
    08/22/2014 21:45 MST2.57P  45.2P  0.00P  
    08/22/2014 22:00 MST2.56P  44.1P  0.00P  
    08/22/2014 22:15 MST2.55P  43.1P  0.00P  
    08/22/2014 22:30 MST2.54P  42.0P  0.00P  
    08/22/2014 22:45 MST2.53P  41.0P  0.00P  
    08/22/2014 23:00 MST2.53P  41.0P  0.00P  
    08/22/2014 23:15 MST2.53P  41.0P  0.00P  
    08/22/2014 23:30 MST2.53P  41.0P  0.00P  
    08/22/2014 23:45 MST2.54P  42.0P  0.00P  
    08/23/2014 00:00 MST2.55P  43.1P  0.00P  
    08/23/2014 00:15 MST2.57P  45.2P  0.00P  
    08/23/2014 00:30 MST2.59P  47.4P  0.00P  
    08/23/2014 00:45 MST2.64P  53.2P  0.00P  
    08/23/2014 01:00 MST2.69P  59.4P  0.00P  
    08/23/2014 01:15 MST2.75P  67.6P  0.00P  
    08/23/2014 01:30 MST2.76P  69.0P  0.00P  
    08/23/2014 01:45 MST2.78P  71.9P  0.00P  
    08/23/2014 02:00 MST2.80P  74.8P  0.00P  
    08/23/2014 02:15 MST2.79P  73.4P  0.00P  
    08/23/2014 02:30 MST2.79P  73.4P  0.00P  
    08/23/2014 02:45 MST2.80P  74.8P  0.00P  
    08/23/2014 03:00 MST2.77P  70.4P  0.00P  
    08/23/2014 03:15 MST2.76P  69.0P  0.00P  
    08/23/2014 03:30 MST2.75P  67.6P  0.00P  
    08/23/2014 03:45 MST2.73P  64.8P  0.00P  
    08/23/2014 04:00 MST2.72P  63.4P  0.00P  
    08/23/2014 04:15 MST2.72P  63.4P  0.00P  
    08/23/2014 04:30 MST2.70P  60.7P  0.00P  
    08/23/2014 04:45 MST2.68P  58.2P  0.00P  
    08/23/2014 05:00 MST2.67P  56.9P  0.00P  
    08/23/2014 05:15 MST2.67P  56.9P  0.00P  
    08/23/2014 05:30 MST2.64P  53.2P  0.00P  
    08/23/2014 05:45 MST2.64P  53.2P  0.00P  
    08/23/2014 06:00 MST2.63P  52.0P  0.00P  
    08/23/2014 06:15 MST2.61P  49.7P  0.00P  
    08/23/2014 06:30 MST2.61P  49.7P  0.00P  
    08/23/2014 06:45 MST2.60P  48.5P  0.00P  
    08/23/2014 07:00 MST2.59P  47.4P  0.00P  
    08/23/2014 07:15 MST2.58P  46.3P  0.00P  
    08/23/2014 07:30 MST2.57P  45.2P  0.00P  
    08/23/2014 07:45 MST2.55P  43.1P  0.00P  
    08/23/2014 08:00 MST2.55P  43.1P  0.00P  
    08/23/2014 08:15 MST2.55P  43.1P  0.00P  
    08/23/2014 08:30 MST2.54P  42.0P  0.00P  
    08/23/2014 08:45 MST2.54P  42.0P  0.00P  
    08/23/2014 09:00 MST2.52P  40.0P  0.00P  
    08/23/2014 09:15 MST2.52P  40.0P  0.00P  
    08/23/2014 09:30 MST2.52P  40.0P  0.00P  
    08/23/2014 09:45 MST2.51P  39.0P  0.00P  
    08/23/2014 10:00 MST2.50P  38.0P  0.00P  
    08/23/2014 10:15 MST2.50P  38.0P  0.00P  
    08/23/2014 10:30 MST2.49P  37.1P  0.00P  
    08/23/2014 10:45 MST2.49P  37.1P  0.00P  
    08/23/2014 11:00 MST2.48P  36.1P  0.00P  
    08/23/2014 11:15 MST2.48P  36.1P  0.00P  
    08/23/2014 11:30 MST2.48P  36.1P  0.00P  
    08/23/2014 11:45 MST2.48P  36.1P  0.00P  
    08/23/2014 12:00 MST2.47P  35.2P  0.00P  
    08/23/2014 12:15 MST2.47P  35.2P  0.00P  
    08/23/2014 12:30 MST2.46P  34.3P  0.00P  
    08/23/2014 12:45 MST2.46P  34.3P  0.00P  
    08/23/2014 13:00 MST2.45P  33.4P  0.00P  
    08/23/2014 13:15 MST2.45P  33.4P  0.00P  
    08/23/2014 13:30 MST2.44P  32.5P  0.00P  
    08/23/2014 13:45 MST2.44P  32.5P  0.00P  
    08/23/2014 14:00 MST2.44P  32.5P  0.00P  
    08/23/2014 14:15 MST2.44P  32.5P  0.00P  
    08/23/2014 14:30 MST2.43P  31.6P  0.00P  
    08/23/2014 14:45 MST2.43P  31.6P  0.00P  
    08/23/2014 15:00 MST2.43P  31.6P  0.00P  
    08/23/2014 15:15 MST2.43P  31.6P  0.00P  
    08/23/2014 15:30 MST2.42P  30.8P  0.00P  
    08/23/2014 15:45 MST2.42P  30.8P  0.00P  
    08/23/2014 16:00 MST2.42P  30.8P  0.00P  
    08/23/2014 16:15 MST2.42P  30.8P  0.00P  
    08/23/2014 16:30 MST2.41P  29.9P  0.00P  
    08/23/2014 16:45 MST2.41P  29.9P  0.00P  
    08/23/2014 17:00 MST2.41P  29.9P  0.00P  
    08/23/2014 17:15 MST2.41P  29.9P  0.00P  
    08/23/2014 17:30 MST2.40P  29.1P  0.00P  
    08/23/2014 17:45 MST2.40P  29.1P  0.00P  
    08/23/2014 18:00 MST2.40P  29.1P  0.00P  
    08/23/2014 18:15 MST2.39P  28.3P  0.00P  
    08/23/2014 18:30 MST2.39P  28.3P  0.00P  
    08/23/2014 18:45 MST2.40P  29.1P  0.00P  
    08/23/2014 19:00 MST2.39P  28.3P  0.00P  
    08/23/2014 19:15 MST2.39P  28.3P  0.00P  
    08/23/2014 19:29 MST2.39P  28.3P  0.00P  
    08/23/2014 19:30 MST2.39P  28.3P  0.00P  
    08/23/2014 19:44 MST2.39P  28.3P  0.00P  
    08/23/2014 19:45 MST2.39P  28.3P  0.00P  
    08/23/2014 20:00 MST2.39P  28.3P  0.00P  
    08/23/2014 20:15 MST2.38P  27.5P  0.00P  
    08/23/2014 20:30 MST2.38P  27.5P  0.00P  
    08/23/2014 20:45 MST2.38P  27.5P  0.00P  
    08/23/2014 21:00 MST2.38P  27.5P  0.00P  
    08/23/2014 21:15 MST2.38P  27.5P  0.00P  
    08/23/2014 21:30 MST2.37P  26.8P  0.00P  
    08/23/2014 21:45 MST2.38P  27.5P  0.00P  
    08/23/2014 22:00 MST2.38P  27.5P  0.00P  
    08/23/2014 22:15 MST2.37P  26.8P  0.00P  
    08/23/2014 22:30 MST2.38P  27.5P  0.00P  
    08/23/2014 22:45 MST2.37P  26.8P  0.00P  
    08/23/2014 23:00 MST2.37P  26.8P  0.00P  
    08/23/2014 23:15 MST2.37P  26.8P  0.00P  
    08/23/2014 23:30 MST2.37P  26.8P  0.00P  
    08/23/2014 23:45 MST2.37P  26.8P  0.00P  
    08/24/2014 00:00 MST2.37P  26.8P  0.00P  
    08/24/2014 00:15 MST2.37P  26.8P  0.00P  
    08/24/2014 00:30 MST2.37P  26.8P  0.00P  
    08/24/2014 00:45 MST2.37P  26.8P  0.00P  
    08/24/2014 01:00 MST2.37P  26.8P  0.00P  
    08/24/2014 01:15 MST2.37P  26.8P  0.00P  
    08/24/2014 01:30 MST2.37P  26.8P  0.00P  
    08/24/2014 01:45 MST2.37P  26.8P  0.00P  
    08/24/2014 02:00 MST2.37P  26.8P  0.00P  
    08/24/2014 02:15 MST2.37P  26.8P  0.00P  
    08/24/2014 02:30 MST2.37P  26.8P  0.00P  
    08/24/2014 02:45 MST2.36P  26.0P  0.00P  
    08/24/2014 03:00 MST2.36P  26.0P  0.00P  
    08/24/2014 03:15 MST2.36P  26.0P  0.00P  
    08/24/2014 03:30 MST2.36P  26.0P  0.00P  
    08/24/2014 03:45 MST2.36P  26.0P  0.00P  
    08/24/2014 04:00 MST2.36P  26.0P  0.00P  
    08/24/2014 04:15 MST2.36P  26.0P  0.00P  
    08/24/2014 04:30 MST2.36P  26.0P  0.00P  
    08/24/2014 04:45 MST2.36P  26.0P  0.00P  
    08/24/2014 05:00 MST2.36P  26.0P  0.00P  
    08/24/2014 05:15 MST2.36P  26.0P  0.00P  
    08/24/2014 05:30 MST2.36P  26.0P  0.00P  
    08/24/2014 05:45 MST2.36P  26.0P  0.00P  
    08/24/2014 06:00 MST2.36P  26.0P  0.00P  
    08/24/2014 06:15 MST2.36P  26.0P  0.00P  
    08/24/2014 06:30 MST2.36P  26.0P  0.00P  
    08/24/2014 06:45 MST2.36P  26.0P  0.00P  
    08/24/2014 07:00 MST2.36P  26.0P  0.00P  
    08/24/2014 07:15 MST2.36P  26.0P  0.00P  
    08/24/2014 07:30 MST2.36P  26.0P  0.00P  
    08/24/2014 07:45 MST2.36P  26.0P  0.00P  
    08/24/2014 08:00 MST2.36P  26.0P  0.00P  
    08/24/2014 08:15 MST2.36P  26.0P  0.00P  
    08/24/2014 08:30 MST2.36P  26.0P  0.00P  
    08/24/2014 08:45 MST2.36P  26.0P  0.00P  
    08/24/2014 09:00 MST2.35P  25.2P  0.00P  
    08/24/2014 09:15 MST2.35P  25.2P  0.00P  
    08/24/2014 09:30 MST2.35P  25.2P  0.00P  
    08/24/2014 09:45 MST2.35P  25.2P  0.00P  
    08/24/2014 10:00 MST2.35P  25.2P  0.00P  
    08/24/2014 10:15 MST2.35P  25.2P  0.00P  
    08/24/2014 10:30 MST2.35P  25.2P  0.00P  
    08/24/2014 10:45 MST2.35P  25.2P  0.00P  
    08/24/2014 11:00 MST2.35P  25.2P  0.00P  
    08/24/2014 11:15 MST2.34P  24.5P  0.00P  
    08/24/2014 11:30 MST2.34P  24.5P  0.00P  
    08/24/2014 11:45 MST2.34P  24.5P  0.00P  
    08/24/2014 12:00 MST2.34P  24.5P  0.00P  
    08/24/2014 12:15 MST2.34P  24.5P  0.00P  
    08/24/2014 12:30 MST2.34P  24.5P  0.00P  
    08/24/2014 12:45 MST2.34P  24.5P  0.00P  
    08/24/2014 13:00 MST2.33P  23.8P  0.00P  
    08/24/2014 13:15 MST2.33P  23.8P  0.00P  
    08/24/2014 13:30 MST2.33P  23.8P  0.00P  
    08/24/2014 13:45 MST2.33P  23.8P  0.00P  
    08/24/2014 14:00 MST2.33P  23.8P  0.00P  
    08/24/2014 14:15 MST2.33P  23.8P  0.00P  
    08/24/2014 14:30 MST2.33P  23.8P  0.00P  
    08/24/2014 14:45 MST2.32P  23.1P  0.00P  
    08/24/2014 15:00 MST2.32P  23.1P  0.00P  
    08/24/2014 15:15 MST2.32P  23.1P  0.00P  
    08/24/2014 15:30 MST2.32P  23.1P  0.00P  
    08/24/2014 15:45 MST2.32P  23.1P  0.00P  
    08/24/2014 16:00 MST2.32P  23.1P  0.00P  
    08/24/2014 16:15 MST2.33P  23.8P  0.00P  
    08/24/2014 16:30 MST2.32P  23.1P  0.00P  
    08/24/2014 16:45 MST2.33P  23.8P  0.00P  
    08/24/2014 17:00 MST2.32P  23.1P  0.00P  
    08/24/2014 17:15 MST2.32P  23.1P  0.00P  
    08/24/2014 17:30 MST2.32P  23.1P  0.00P  
    08/24/2014 17:45 MST2.32P  23.1P  0.00P  
    08/24/2014 18:00 MST2.32P  23.1P  0.00P  
    08/24/2014 18:15 MST2.32P  23.1P  0.00P  
    08/24/2014 18:30 MST2.32P  23.1P  0.00P  
    08/24/2014 18:45 MST2.31P  22.4P  0.00P  
    08/24/2014 19:00 MST2.32P  23.1P  0.00P  
    08/24/2014 19:15 MST2.32P  23.1P  0.00P  
    08/24/2014 19:29 MST2.32P  23.1P  0.00P  
    08/24/2014 19:30 MST2.32P  23.1P  0.00P  
    08/24/2014 19:44 MST2.32P  23.1P  0.00P  
    08/24/2014 19:45 MST2.32P  23.1P  0.00P  
    08/24/2014 20:00 MST2.31P  22.4P  0.00P  
    08/24/2014 20:15 MST2.32P  23.1P  0.00P  
    08/24/2014 20:30 MST2.32P  23.1P  0.00P  
    08/24/2014 20:45 MST2.32P  23.1P  0.00P  
    08/24/2014 21:00 MST3.54P  239P  0.00P  
    08/24/2014 21:15 MST3.91P  354P  0.00P  
    08/24/2014 21:30 MST3.84P  331P  0.00P  
    08/24/2014 21:45 MST3.83P  327P  0.00P  
    08/24/2014 22:00 MST3.77P  305P  0.00P  
    08/24/2014 22:15 MST3.56P  245P  0.00P  
    08/24/2014 22:30 MST3.45P  215P  0.00P  
    08/24/2014 22:45 MST3.29P  176P  0.00P  
    08/24/2014 23:00 MST3.16P  143P  0.00P  
    08/24/2014 23:15 MST3.04P  117P  0.00P  
    08/24/2014 23:30 MST2.96P  102P  0.00P  
    08/24/2014 23:45 MST2.89P  89.3P  0.00P  
    08/25/2014 00:00 MST2.84P  81.0P  0.00P  
    08/25/2014 00:15 MST2.78P  71.9P  0.00P  
    08/25/2014 00:30 MST2.74P  66.2P  0.00P  
    08/25/2014 00:45 MST2.70P  60.7P  0.00P  
    08/25/2014 01:00 MST2.65P  54.4P  0.00P  
    08/25/2014 01:15 MST2.61P  49.7P  0.00P  
    08/25/2014 01:30 MST2.59P  47.4P  0.00P  
    08/25/2014 01:45 MST2.55P  43.1P  0.00P  
    08/25/2014 02:00 MST2.53P  41.0P  0.00P  
    08/25/2014 02:15 MST2.50P  38.0P  0.00P  
    08/25/2014 02:30 MST2.49P  37.1P  0.00P  
    08/25/2014 02:45 MST2.47P  35.2P  0.00P  
    08/25/2014 03:00 MST2.46P  34.3P  0.00P  
    08/25/2014 03:15 MST2.44P  32.5P  0.00P  
    08/25/2014 03:30 MST2.43P  31.6P  0.00P  
    08/25/2014 03:45 MST2.41P  29.9P  0.00P  
    08/25/2014 04:00 MST2.40P  29.1P  0.00P  
    08/25/2014 04:15 MST2.39P  28.3P  0.00P  
    08/25/2014 04:30 MST2.38P  27.5P  0.00P  
    08/25/2014 04:45 MST2.38P  27.5P  0.00P  
    08/25/2014 05:00 MST2.37P  26.8P  0.00P  
    08/25/2014 05:15 MST2.37P  26.8P  0.00P  
    08/25/2014 05:30 MST2.36P  26.0P  0.00P  
    08/25/2014 05:45 MST2.36P  26.0P  0.00P  
    08/25/2014 06:00 MST2.35P  25.2P  0.00P  
    08/25/2014 06:15 MST2.35P  25.2P  0.00P  
    08/25/2014 06:30 MST2.35P  25.2P  0.00P  
    08/25/2014 06:45 MST2.35P  25.2P  0.00P  
    08/25/2014 07:00 MST2.34P  24.5P  0.00P  
    08/25/2014 07:15 MST2.34P  24.5P  0.00P  
    08/25/2014 07:30 MST2.34P  24.5P  0.00P  
    08/25/2014 07:45 MST2.34P  24.5P  0.00P  
    08/25/2014 08:00 MST2.34P  24.5P  0.00P  
    08/25/2014 08:15 MST2.34P  24.5P  0.00P  
    08/25/2014 08:30 MST2.34P  24.5P  0.00P  
    08/25/2014 08:45 MST2.33P  23.8P  0.00P  
    08/25/2014 09:00 MST2.34P  24.5P  0.00P  
    08/25/2014 09:15 MST2.33P  23.8P  0.00P  
    08/25/2014 09:30 MST2.34P  24.5P  0.00P  
    08/25/2014 09:45 MST2.33P  23.8P  0.00P  
    08/25/2014 10:00 MST2.33P  23.8P  0.00P  
    08/25/2014 10:15 MST2.33P  23.8P  0.00P  
    08/25/2014 10:30 MST2.33P  23.8P  0.00P  
    08/25/2014 10:45 MST2.33P  23.8P  0.00P  
    08/25/2014 11:00 MST2.33P  23.8P  0.00P  
    08/25/2014 11:15 MST2.32P  23.1P  0.00P  
    08/25/2014 11:30 MST2.32P  23.1P  0.00P  
    08/25/2014 11:45 MST2.32P  23.1P  0.00P  
    08/25/2014 12:00 MST2.32P  23.1P  0.00P  
    08/25/2014 12:15 MST2.32P  23.1P  0.00P  
    08/25/2014 12:30 MST2.32P  23.1P  0.00P  
    08/25/2014 12:45 MST2.32P  23.1P  0.00P  
    08/25/2014 13:00 MST2.32P  23.1P  0.00P  
    08/25/2014 13:15 MST2.32P  23.1P  0.00P  
    08/25/2014 13:30 MST2.32P  23.1P  0.00P  
    08/25/2014 13:45 MST2.32P  23.1P  0.00P  
    08/25/2014 14:00 MST2.32P  23.1P  0.00P  
    08/25/2014 14:15 MST2.32P  23.1P  0.00P  
    08/25/2014 14:30 MST2.32P  23.1P  0.00P  
    08/25/2014 14:45 MST2.32P  23.1P  0.00P  
    08/25/2014 15:00 MST2.32P  23.1P  0.00P  
    08/25/2014 15:15 MST2.31P  22.4P  0.00P  
    08/25/2014 15:30 MST2.32P  23.1P  0.00P  
    08/25/2014 15:45 MST2.32P  23.1P  0.00P  
    08/25/2014 16:00 MST2.31P  22.4P  0.00P  
    08/25/2014 16:15 MST2.31P  22.4P  0.00P  
    08/25/2014 16:30 MST2.31P  22.4P  0.00P  
    08/25/2014 16:45 MST2.31P  22.4P  0.00P  
    08/25/2014 17:00 MST2.31P  22.4P  0.00P  
    08/25/2014 17:15 MST2.31P  22.4P  0.00P  
    08/25/2014 17:30 MST2.31P  22.4P  0.00P  
    08/25/2014 17:45 MST2.31P  22.4P  0.00P  
    08/25/2014 18:00 MST2.31P  22.4P  0.00P  
    08/25/2014 18:15 MST2.31P  22.4P  0.00P  
    08/25/2014 18:30 MST2.30P  21.7P  0.00P  
    08/25/2014 18:45 MST2.30P  21.7P  0.00P  
    08/25/2014 19:00 MST2.31P  22.4P  0.00P  
    08/25/2014 19:15 MST2.31P  22.4P  0.00P  
    08/25/2014 19:29 MST2.30P  21.7P  0.00P  
    08/25/2014 19:30 MST2.30P  21.7P  0.00P  
    08/25/2014 19:44 MST2.30P  21.7P  0.00P  
    08/25/2014 19:45 MST2.30P  21.7P  0.00P  
    08/25/2014 20:00 MST2.30P  21.7P  0.00P  
    08/25/2014 20:15 MST2.30P  21.7P  0.00P  
    08/25/2014 20:30 MST2.30P  21.7P  0.00P  
    08/25/2014 20:45 MST2.30P  21.7P  0.00P  
    08/25/2014 21:00 MST2.30P  21.7P  0.00P  
    08/25/2014 21:15 MST2.30P  21.7P  0.00P  
    08/25/2014 21:30 MST2.30P  21.7P  0.00P  
    08/25/2014 21:45 MST2.30P  21.7P  0.00P  
    08/25/2014 22:00 MST2.30P  21.7P  0.00P  
    08/25/2014 22:15 MST2.30P  21.7P  0.00P  
    08/25/2014 22:30 MST2.30P  21.7P  0.00P  
    08/25/2014 22:45 MST2.30P  21.7P  0.00P  
    08/25/2014 23:00 MST2.30P  21.7P  0.00P  
    08/25/2014 23:15 MST2.30P  21.7P  0.00P  
    08/25/2014 23:30 MST2.30P  21.7P  0.00P  
    08/25/2014 23:45 MST2.30P  21.7P  0.00P  
    08/26/2014 00:00 MST2.30P  21.7P  0.00P  
    08/26/2014 00:15 MST2.30P  21.7P  0.00P  
    08/26/2014 00:30 MST2.30P  21.7P  0.00P  
    08/26/2014 00:45 MST2.30P  21.7P  0.00P  
    08/26/2014 01:00 MST2.30P  21.7P  0.00P  
    08/26/2014 01:15 MST2.30P  21.7P  0.00P  
    08/26/2014 01:30 MST2.30P  21.7P  0.00P  
    08/26/2014 01:45 MST2.30P  21.7P  0.00P  
    08/26/2014 02:00 MST2.30P  21.7P  0.00P  
    08/26/2014 02:15 MST2.30P  21.7P  0.00P  
    08/26/2014 02:30 MST2.30P  21.7P  0.00P  
    08/26/2014 02:45 MST2.30P  21.7P  0.00P  
    08/26/2014 03:00 MST2.30P  21.7P  0.00P  
    08/26/2014 03:15 MST2.30P  21.7P  0.00P  
    08/26/2014 03:30 MST2.30P  21.7P  0.00P  
    08/26/2014 03:45 MST2.30P  21.7P  0.00P  
    08/26/2014 04:00 MST2.30P  21.7P  0.00P  
    08/26/2014 04:15 MST2.30P  21.7P  0.00P  
    08/26/2014 04:30 MST2.30P  21.7P  0.00P  
    08/26/2014 04:45 MST2.30P  21.7P  0.00P  
    08/26/2014 05:00 MST2.30P  21.7P  0.00P  
    08/26/2014 05:15 MST2.30P  21.7P  0.00P  
    08/26/2014 05:30 MST2.30P  21.7P  0.00P  
    08/26/2014 05:45 MST2.30P  21.7P  0.00P  
    08/26/2014 06:00 MST2.30P  21.7P  0.00P  
    08/26/2014 06:15 MST2.30P  21.7P  0.00P  
    08/26/2014 06:30 MST2.30P  21.7P  0.00P  
    08/26/2014 06:45 MST2.29P  21.1P  0.00P  
    08/26/2014 07:00 MST2.30P  21.7P  0.00P  
    08/26/2014 07:15 MST2.30P  21.7P  0.00P  
    08/26/2014 07:30 MST2.30P  21.7P  0.00P  
    08/26/2014 07:45 MST2.29P  21.1P  0.00P  
    08/26/2014 08:00 MST2.29P  21.1P  0.00P  
    08/26/2014 08:15 MST2.30P  21.7P  0.00P  
    08/26/2014 08:30 MST2.29P  21.1P  0.00P  
    08/26/2014 08:45 MST2.29P  21.1P  0.00P  
    08/26/2014 09:00 MST2.29P  21.1P  0.00P  
    08/26/2014 09:15 MST2.30P  21.7P  0.00P  
    08/26/2014 09:30 MST2.29P  21.1P  0.00P  
    08/26/2014 09:45 MST2.29P  21.1P  0.00P  
    08/26/2014 10:00 MST2.29P  21.1P  0.00P  
    08/26/2014 10:15 MST2.29P  21.1P  0.00P  
    08/26/2014 10:30 MST2.29P  21.1P  0.00P  
    08/26/2014 10:45 MST2.29P  21.1P  0.00P  
    08/26/2014 11:00 MST2.29P  21.1P  0.00P  
    08/26/2014 11:15 MST2.29P  21.1P  0.00P  
    08/26/2014 11:30 MST2.29P  21.1P  0.00P  
    08/26/2014 11:45 MST2.29P  21.1P  0.00P  
    08/26/2014 12:00 MST2.29P  21.1P  0.00P  
    08/26/2014 12:15 MST2.29P  21.1P  0.00P  
    08/26/2014 12:30 MST2.29P  21.1P  0.00P  
    08/26/2014 12:45 MST2.29P  21.1P  0.00P  
    08/26/2014 13:00 MST2.29P  21.1P  0.00P  
    08/26/2014 13:15 MST2.29P  21.1P  0.00P  
    08/26/2014 13:30 MST2.29P  21.1P  0.00P  
    08/26/2014 13:45 MST2.29P  21.1P  0.00P  
    08/26/2014 14:00 MST2.29P  21.1P  0.00P  
    08/26/2014 14:15 MST2.29P  21.1P  0.00P  
    08/26/2014 14:30 MST2.28P  20.4P  0.00P  
    08/26/2014 14:45 MST2.29P  21.1P  0.06P  
    08/26/2014 15:00 MST2.29P  21.1P  0.04P  
    08/26/2014 15:15 MST2.29P  21.1P  0.02P  
    08/26/2014 15:30 MST2.30P  21.7P  0.00P  
    08/26/2014 15:45 MST2.30P  21.7P  0.01P  
    08/26/2014 16:00 MST2.30P  21.7P  0.00P  
    08/26/2014 16:15 MST2.30P  21.7P  0.00P  
    08/26/2014 16:30 MST2.29P  21.1P  0.00P  
    08/26/2014 16:45 MST2.29P  21.1P  0.00P  
    08/26/2014 17:00 MST2.29P  21.1P  0.00P  
    08/26/2014 17:15 MST2.29P  21.1P  0.00P  
    08/26/2014 17:30 MST2.29P  21.1P  0.00P  
    08/26/2014 17:45 MST2.30P  21.7P  0.00P  
    08/26/2014 18:00 MST2.72P  63.4P  0.00P  
    08/26/2014 18:15 MST2.90P  91.0P  0.00P  
    08/26/2014 18:30 MST2.88P  87.6P  0.00P  
    08/26/2014 18:45 MST2.80P  74.8P  0.00P  
    08/26/2014 19:00 MST2.70P  60.7P  0.00P  
    08/26/2014 19:15 MST2.60P  48.5P  0.00P  
    08/26/2014 19:29 MST2.52P  40.0P  0.00P  
    08/26/2014 19:30 MST2.52P  40.0P  0.00P  
    08/26/2014 19:44 MST2.46P  34.3P  0.00P  
    08/26/2014 19:45 MST2.46P  34.3P  0.00P  
    08/26/2014 20:00 MST2.41P  29.9P  0.00P  
    08/26/2014 20:15 MST2.38P  27.5P  0.00P  
    08/26/2014 20:30 MST2.36P  26.0P  0.00P  
    08/26/2014 20:45 MST2.35P  25.2P  0.00P  
    08/26/2014 21:00 MST2.34P  24.5P  0.00P  
    08/26/2014 21:15 MST2.33P  23.8P  0.00P  
    08/26/2014 21:30 MST2.32P  23.1P  0.00P  
    08/26/2014 21:45 MST2.32P  23.1P  0.00P  
    08/26/2014 22:00 MST2.32P  23.1P  0.00P  
    08/26/2014 22:15 MST2.32P  23.1P  0.00P  
    08/26/2014 22:30 MST2.32P  23.1P  0.00P  
    08/26/2014 22:45 MST2.32P  23.1P  0.00P  
    08/26/2014 23:00 MST2.32P  23.1P  0.00P  
    08/26/2014 23:15 MST2.32P  23.1P  0.00P  
    08/26/2014 23:30 MST2.32P  23.1P  0.00P  
    08/26/2014 23:45 MST2.31P  22.4P  0.00P  
    08/27/2014 00:00 MST2.31P  22.4P  0.00P  
    08/27/2014 00:15 MST2.30P  21.7P  0.00P  
    08/27/2014 00:30 MST2.30P  21.7P  0.00P  
    08/27/2014 00:45 MST2.30P  21.7P  0.00P  
    08/27/2014 01:00 MST2.30P  21.7P  0.00P  
    08/27/2014 01:15 MST2.30P  21.7P  0.00P  
    08/27/2014 01:30 MST2.30P  21.7P  0.00P  
    08/27/2014 01:45 MST2.30P  21.7P  0.00P  
    08/27/2014 02:00 MST2.30P  21.7P  0.00P  
    08/27/2014 02:15 MST2.30P  21.7P  0.00P  
    08/27/2014 02:30 MST2.29P  21.1P  0.00P  
    08/27/2014 02:45 MST2.29P  21.1P  0.00P  
    08/27/2014 03:00 MST2.29P  21.1P  0.00P  
    08/27/2014 03:15 MST2.29P  21.1P  0.00P  
    08/27/2014 03:30 MST2.28P  20.4P  0.00P  
    08/27/2014 03:45 MST2.28P  20.4P  0.00P  
    08/27/2014 04:00 MST2.28P  20.4P  0.00P  
    08/27/2014 04:15 MST2.28P  20.4P  0.00P  
    08/27/2014 04:30 MST2.28P  20.4P  0.01P  
    08/27/2014 04:45 MST2.27P  19.8P  0.00P  
    08/27/2014 05:00 MST2.28P  20.4P  0.00P  
    08/27/2014 05:15 MST2.27P  19.8P  0.00P  
    08/27/2014 05:30 MST2.27P  19.8P  0.00P  
    08/27/2014 05:45 MST2.27P  19.8P  0.00P  
    08/27/2014 06:00 MST2.27P  19.8P  0.00P  
    08/27/2014 06:15 MST2.27P  19.8P  0.00P  
    08/27/2014 06:30 MST2.27P  19.8P  0.00P  
    08/27/2014 06:45 MST2.27P  19.8P  0.00P  
    08/27/2014 07:00 MST2.27P  19.8P  0.00P  
    08/27/2014 07:15 MST2.27P  19.8P  0.00P  
    08/27/2014 07:30 MST2.27P  19.8P  0.00P  
    08/27/2014 07:45 MST2.27P  19.8P  0.00P  
    08/27/2014 08:00 MST2.27P  19.8P  0.00P  
    08/27/2014 08:15 MST2.27P  19.8P  0.00P  
    08/27/2014 08:30 MST2.27P  19.8P  0.00P  
    08/27/2014 08:45 MST2.27P  19.8P  0.00P  
    08/27/2014 09:00 MST2.27P  19.8P  0.00P  
    08/27/2014 09:15 MST2.27P  19.8P  0.00P  
    08/27/2014 09:30 MST2.27P  19.8P  0.00P  
    08/27/2014 09:45 MST2.27P  19.8P  0.00P  
    08/27/2014 10:00 MST2.28P  20.4P  0.00P  
    08/27/2014 10:15 MST2.28P  20.4P  0.00P  
    08/27/2014 10:30 MST2.28P  20.4P  0.00P  
    08/27/2014 10:45 MST2.29P  21.1P  0.00P  
    08/27/2014 11:00 MST2.30P  21.7P  0.00P  
    08/27/2014 11:15 MST2.37P  26.8P  0.00P  
    08/27/2014 11:30 MST2.97P  104P  0.00P  
    08/27/2014 11:45 MST3.19P  150P  0.00P  
    08/27/2014 12:00 MST3.26P  168P  0.00P  
    08/27/2014 12:15 MST3.32P  184P  0.00P  
    08/27/2014 12:30 MST3.30P  178P  0.00P  
    08/27/2014 12:45 MST3.33P  186P  0.00P  
    08/27/2014 13:00 MST3.33P  186P  0.00P  
    08/27/2014 13:15 MST3.28P  173P  0.00P  
    08/27/2014 13:30 MST3.27P  170P  0.00P  
    08/27/2014 13:45 MST3.28P  173P  0.00P  
    08/27/2014 14:00 MST3.26P  168P  0.00P  
    08/27/2014 14:15 MST3.23P  160P  0.00P  
    08/27/2014 14:30 MST3.20P  153P  0.00P  
    08/27/2014 14:45 MST3.21P  155P  0.00P  
    08/27/2014 15:00 MST3.14P  139P  0.00P  
    08/27/2014 15:15 MST3.18P  148P  0.00P  
    08/27/2014 15:30 MST3.13P  136P  0.00P  
    08/27/2014 15:45 MST3.12P  134P  0.00P  
    08/27/2014 16:00 MST3.06P  121P  0.00P  
    08/27/2014 16:15 MST3.09P  128P  0.00P  
    08/27/2014 16:30 MST3.08P  125P  0.00P  
    08/27/2014 16:45 MST3.06P  121P  0.00P  
    08/27/2014 17:00 MST3.05P  119P  0.00P  
    08/27/2014 17:15 MST3.03P  115P  0.00P  
    08/27/2014 17:30 MST3.00P  109P  0.00P  
    08/27/2014 17:45 MST3.00P  109P  0.00P  
    08/27/2014 18:00 MST2.96P  102P  0.00P  
    08/27/2014 18:15 MST2.95P  99.8P  0.00P  
    08/27/2014 18:30 MST2.92P  94.4P  0.00P  
    08/27/2014 18:45 MST2.93P  96.2P  0.00P  
    08/27/2014 19:00 MST2.91P  92.7P  0.00P  
    08/27/2014 19:15 MST2.90P  91.0P  0.00P  
    08/27/2014 19:29 MST2.90P  91.0P  0.00P  
    08/27/2014 19:30 MST2.90P  91.0P  0.00P  
    08/27/2014 19:44 MST2.90P  91.0P  0.00P  
    08/27/2014 19:45 MST2.90P  91.0P  0.00P  
    08/27/2014 20:00 MST2.91P  92.7P  0.00P  
    08/27/2014 20:15 MST2.95P  99.8P  0.00P  
    08/27/2014 20:30 MST2.92P  94.4P  0.00P  
    08/27/2014 20:45 MST2.90P  91.0P  0.00P  
    08/27/2014 21:00 MST2.94P  98.0P  0.00P  
    08/27/2014 21:15 MST2.97P  104P  0.00P  
    08/27/2014 21:30 MST2.96P  102P  0.00P  
    08/27/2014 21:45 MST2.97P  104P  0.00P  
    08/27/2014 22:00 MST2.92P  94.4P  0.00P  
    08/27/2014 22:15 MST2.91P  92.7P  0.00P  
    08/27/2014 22:30 MST2.90P  91.0P  0.00P  
    08/27/2014 22:45 MST2.89P  89.3P  0.00P  
    08/27/2014 23:00 MST2.87P  85.9P  0.00P  
    08/27/2014 23:15 MST2.88P  87.6P  0.00P  
    08/27/2014 23:30 MST2.87P  85.9P  0.00P  
    08/27/2014 23:45 MST2.84P  81.0P  0.00P  
    08/28/2014 00:00 MST2.83P  79.5P  0.00P  
    08/28/2014 00:15 MST2.83P  79.5P  0.00P  
    08/28/2014 00:30 MST2.84P  81.0P  0.00P  
    08/28/2014 00:45 MST2.84P  81.0P  0.00P  
    08/28/2014 01:00 MST2.82P  77.9P  0.00P  
    08/28/2014 01:15 MST2.81P  76.4P  0.00P  
    08/28/2014 01:30 MST2.82P  77.9P  0.00P  
    08/28/2014 01:45 MST2.79P  73.4P  0.00P  
    08/28/2014 02:00 MST2.77P  70.4P  0.00P  

    Explanation
      P  Provisional data subject to revision.